Time,TemperatureF,DewpointF,PressureIn,WindDirection,WindDirectionDegrees,WindSpeedMPH,WindSpeedGustMPH,Humidity,HourlyPrecipIn,Conditions,Clouds,dailyrainin,SolarRadiationWatts/m^2,SoftwareType,DateUTC
2013-06-21 00:00:00,65.4,63.6,30.24,WNW,293,1.0,2.0,94,0.00,,SKC,0.00,0.00,VWS V14.01,2013-06-21 04:00:00,
2013-06-21 00:01:00,65.3,63.5,30.24,WNW,293,2.0,2.0,94,0.00,,SKC,0.00,0.00,VWS V14.01,2013-06-21 04:01:00,
2013-06-21 00:06:00,65.3,63.5,30.24,WNW,293,2.0,3.0,94,0.00,,SKC,0.00,0.00,VWS V14.01,2013-06-21 04:06:00,
2013-06-21 00:11:00,65.3,63.5,30.24,WNW,293,0.0,3.0,94,0.00,,SKC,0.00,0.00,VWS V14.01,2013-06-21 04:11:00,
2013-06-21 00:12:00,65.4,63.6,30.24,WNW,293,0.0,3.0,94,0.00,,SKC,0.00,0.00,VWS V14.01,2013-06-21 04:12:00,
2013-06-21 00:16:00,65.4,63.6,30.24,WNW,293,0.0,3.0,94,0.00,,SKC,0.00,0.00,VWS V14.01,2013-06-21 04:16:00,
2013-06-21 00:17:00,65.4,63.9,30.24,WNW,293,0.0,3.0,95,0.00,,SKC,0.00,0.00,VWS V14.01,2013-06-21 04:17:00,
2013-06-21 00:22:00,65.5,64.0,30.24,WNW,293,0.0,3.0,95,0.00,,SKC,0.00,0.00,VWS V14.01,2013-06-21 04:22:00,
2013-06-21 00:23:00,65.5,64.0,30.24,WNW,293,0.0,3.0,95,0.00,,SKC,0.00,0.00,VWS V14.01,2013-06-21 04:23:00,
2013-06-21 00:27:00,65.5,64.0,30.24,WNW,293,0.0,3.0,95,0.00,,SKC,0.00,0.00,VWS V14.01,2013-06-21 04:27:00,
2013-06-21 00:28:00,65.5,64.0,30.25,WNW,293,0.0,3.0,95,0.00,,SKC,0.00,0.00,VWS V14.01,2013-06-21 04:28:00,
2013-06-21 00:32:00,65.6,64.1,30.25,WNW,293,0.0,0.0,95,0.00,,SKC,0.00,0.00,VWS V14.01,2013-06-21 04:32:00,
2013-06-21 00:33:00,65.6,64.1,30.25,WNW,293,0.0,0.0,95,0.00,,SKC,0.00,0.00,VWS V14.01,2013-06-21 04:33:00,
2013-06-21 00:37:00,65.7,64.2,30.25,WNW,293,0.0,1.0,95,0.00,,SKC,0.00,0.00,VWS V14.01,2013-06-21 04:37:00,
2013-06-21 00:38:00,65.7,64.2,30.25,WNW,293,0.0,1.0,95,0.00,,SKC,0.00,0.00,VWS V14.01,2013-06-21 04:38:00,
2013-06-21 00:39:00,65.7,64.2,30.25,WNW,293,0.0,1.0,95,0.00,,SKC,0.00,0.00,VWS V14.01,2013-06-21 04:39:00,
2013-06-21 00:42:00,65.8,64.3,30.25,WNW,293,0.0,1.0,95,0.00,,SKC,0.00,0.00,VWS V14.01,2013-06-21 04:42:00,
2013-06-21 00:43:00,65.8,64.3,30.25,WNW,293,0.0,1.0,95,0.00,,SKC,0.00,0.00,VWS V14.01,2013-06-21 04:43:00,
2013-06-21 00:44:00,65.9,64.4,30.25,NW,308,0.0,2.0,95,0.00,,SKC,0.00,0.00,VWS V14.01,2013-06-21 04:44:00,
2013-06-21 00:47:00,66.0,64.5,30.25,NW,315,0.0,2.0,95,0.00,,SKC,0.00,0.00,VWS V14.01,2013-06-21 04:47:00,
2013-06-21 00:48:00,66.1,64.6,30.25,NW,315,0.0,2.0,95,0.00,,SKC,0.00,0.00,VWS V14.01,2013-06-21 04:48:00,
2013-06-21 00:49:00,66.1,64.6,30.25,NW,315,0.0,2.0,95,0.00,,SKC,0.00,0.00,VWS V14.01,2013-06-21 04:49:00,
2013-06-21 00:53:00,66.2,64.7,30.25,NNW,330,0.0,2.0,95,0.00,,SKC,0.00,0.00,VWS V14.01,2013-06-21 04:53:00,
2013-06-21 00:54:00,66.2,64.4,30.25,NNW,330,0.0,2.0,94,0.00,,SKC,0.00,0.00,VWS V14.01,2013-06-21 04:54:00,
2013-06-21 00:58:00,66.3,64.5,30.25,NNW,330,0.0,2.0,94,0.00,,SKC,0.00,0.00,VWS V14.01,2013-06-21 04:58:00,
2013-06-21 00:59:00,66.3,64.5,30.25,NNW,330,1.0,2.0,94,0.00,,SKC,0.00,0.00,VWS V14.01,2013-06-21 04:59:00,
2013-06-21 01:03:00,66.4,64.6,30.25,NNW,332,0.0,1.0,94,0.00,,SKC,0.00,0.00,VWS V14.01,2013-06-21 05:03:00,
2013-06-21 01:04:00,66.4,64.6,30.25,NNW,332,0.0,1.0,94,0.00,,SKC,0.00,0.00,VWS V14.01,2013-06-21 05:04:00,
2013-06-21 01:05:00,66.4,64.6,30.25,NNW,332,0.0,1.0,94,0.00,,SKC,0.00,0.00,VWS V14.01,2013-06-21 05:05:00,
2013-06-21 01:08:00,66.5,64.7,30.25,NNW,333,0.0,2.0,94,0.00,,SKC,0.00,0.00,VWS V14.01,2013-06-21 05:08:00,
2013-06-21 01:09:00,66.5,64.7,30.25,NNW,333,0.0,2.0,94,0.00,,SKC,0.00,0.00,VWS V14.01,2013-06-21 05:09:00,
2013-06-21 01:10:00,66.5,64.7,30.25,NNW,333,0.0,2.0,94,0.00,,SKC,0.00,0.00,VWS V14.01,2013-06-21 05:10:00,
2013-06-21 01:13:00,66.6,64.5,30.25,NNW,333,0.0,2.0,93,0.00,,SKC,0.00,0.00,VWS V14.01,2013-06-21 05:13:00,
2013-06-21 01:14:00,66.6,64.5,30.25,NNW,333,0.0,2.0,93,0.00,,SKC,0.00,0.00,VWS V14.01,2013-06-21 05:14:00,
2013-06-21 01:15:00,66.6,64.5,30.25,NNW,333,0.0,2.0,93,0.00,,SKC,0.00,0.00,VWS V14.01,2013-06-21 05:15:00,
2013-06-21 01:18:00,66.6,64.5,30.25,North,351,0.0,2.0,93,0.00,,SKC,0.00,0.00,VWS V14.01,2013-06-21 05:18:00,
2013-06-21 01:19:00,66.7,64.6,30.25,North,351,0.0,2.0,93,0.00,,SKC,0.00,0.00,VWS V14.01,2013-06-21 05:19:00,
2013-06-21 01:20:00,66.7,64.6,30.25,North,351,0.0,2.0,93,0.00,,SKC,0.00,0.00,VWS V14.01,2013-06-21 05:20:00,
2013-06-21 01:23:00,66.7,64.3,30.25,NE,55,3.0,3.0,92,0.00,,SKC,0.00,0.00,VWS V14.01,2013-06-21 05:23:00,
2013-06-21 01:25:00,66.7,64.3,30.25,NE,55,0.0,3.0,92,0.00,,SKC,0.00,0.00,VWS V14.01,2013-06-21 05:25:00,
2013-06-21 01:26:00,66.7,64.3,30.25,NE,55,1.0,3.0,92,0.00,,SKC,0.00,0.00,VWS V14.01,2013-06-21 05:26:00,
2013-06-21 01:28:00,66.8,64.1,30.25,NE,55,1.0,3.0,91,0.00,,SKC,0.00,0.00,VWS V14.01,2013-06-21 05:28:00,
2013-06-21 01:30:00,66.8,64.1,30.25,NE,55,1.0,3.0,91,0.00,,SKC,0.00,0.00,VWS V14.01,2013-06-21 05:30:00,
2013-06-21 01:31:00,66.8,64.1,30.25,NE,55,0.0,3.0,91,0.00,,SKC,0.00,0.00,VWS V14.01,2013-06-21 05:31:00,
2013-06-21 01:33:00,66.9,64.2,30.25,NE,55,0.0,0.0,91,0.00,,SKC,0.00,0.00,VWS V14.01,2013-06-21 05:33:00,
2013-06-21 01:35:00,66.9,64.2,30.24,NE,55,0.0,0.0,91,0.00,,SKC,0.00,0.00,VWS V14.01,2013-06-21 05:35:00,
2013-06-21 01:36:00,66.9,64.2,30.25,NE,55,0.0,0.0,91,0.00,,SKC,0.00,0.00,VWS V14.01,2013-06-21 05:36:00,
2013-06-21 01:39:00,67.0,64.3,30.25,NE,55,0.0,1.0,91,0.00,,SKC,0.00,0.00,VWS V14.01,2013-06-21 05:39:00,
2013-06-21 01:40:00,67.0,64.3,30.25,NE,55,0.0,1.0,91,0.00,,SKC,0.00,0.00,VWS V14.01,2013-06-21 05:40:00,
2013-06-21 01:41:00,67.0,64.3,30.25,NE,55,0.0,1.0,91,0.00,,SKC,0.00,0.00,VWS V14.01,2013-06-21 05:41:00,
2013-06-21 01:42:00,67.0,64.3,30.25,NE,55,0.0,1.0,91,0.00,,SKC,0.00,0.00,VWS V14.01,2013-06-21 05:42:00,
2013-06-21 01:44:00,67.0,64.3,30.25,NE,55,2.0,2.0,91,0.00,,SKC,0.00,0.00,VWS V14.01,2013-06-21 05:44:00,
2013-06-21 01:45:00,67.0,64.3,30.25,NE,55,0.0,2.0,91,0.00,,SKC,0.00,0.00,VWS V14.01,2013-06-21 05:45:00,
2013-06-21 01:46:00,67.0,64.3,30.25,NE,55,0.0,2.0,91,0.00,,SKC,0.00,0.00,VWS V14.01,2013-06-21 05:46:00,
2013-06-21 01:47:00,67.0,64.3,30.25,NE,55,0.0,2.0,91,0.00,,SKC,0.00,0.00,VWS V14.01,2013-06-21 05:47:00,
2013-06-21 01:49:00,67.0,64.3,30.25,NE,55,1.0,2.0,91,0.00,,SKC,0.00,0.00,VWS V14.01,2013-06-21 05:49:00,
2013-06-21 01:50:00,67.0,64.3,30.25,NE,55,0.0,2.0,91,0.00,,SKC,0.00,0.00,VWS V14.01,2013-06-21 05:50:00,
2013-06-21 01:51:00,67.0,64.3,30.25,NE,55,0.0,2.0,91,0.00,,SKC,0.00,0.00,VWS V14.01,2013-06-21 05:51:00,
2013-06-21 01:52:00,67.0,64.3,30.25,NE,55,0.0,2.0,91,0.00,,SKC,0.00,0.00,VWS V14.01,2013-06-21 05:52:00,
2013-06-21 01:54:00,67.0,64.3,30.25,NE,55,0.0,2.0,91,0.00,,SKC,0.00,0.00,VWS V14.01,2013-06-21 05:54:00,
2013-06-21 01:55:00,66.9,64.2,30.25,NE,55,0.0,2.0,91,0.00,,SKC,0.00,0.00,VWS V14.01,2013-06-21 05:55:00,
2013-06-21 01:56:00,66.9,64.2,30.25,NE,55,0.0,2.0,91,0.00,,SKC,0.00,0.00,VWS V14.01,2013-06-21 05:56:00,
2013-06-21 01:57:00,66.9,64.2,30.25,NE,55,0.0,2.0,91,0.00,,SKC,0.00,0.00,VWS V14.01,2013-06-21 05:57:00,
2013-06-21 01:59:00,66.9,64.2,30.25,NE,55,0.0,2.0,91,0.00,,SKC,0.00,0.00,VWS V14.01,2013-06-21 05:59:00,
2013-06-21 02:01:00,66.9,64.2,30.25,NE,55,0.0,2.0,91,0.00,,SKC,0.00,0.00,VWS V14.01,2013-06-21 06:01:00,
2013-06-21 02:03:00,66.9,64.2,30.25,NE,55,0.0,1.0,91,0.00,,SKC,0.00,0.00,VWS V14.01,2013-06-21 06:03:00,
2013-06-21 02:04:00,66.9,63.9,30.25,NE,55,0.0,1.0,90,0.00,,SKC,0.00,0.00,VWS V14.01,2013-06-21 06:04:00,
2013-06-21 02:06:00,66.9,64.2,30.25,NE,55,0.0,1.0,91,0.00,,SKC,0.00,0.00,VWS V14.01,2013-06-21 06:06:00,
2013-06-21 02:07:00,66.9,63.9,30.25,NE,55,0.0,1.0,90,0.00,,SKC,0.00,0.00,VWS V14.01,2013-06-21 06:07:00,
2013-06-21 02:08:00,66.8,63.8,30.25,NE,55,0.0,1.0,90,0.00,,SKC,0.00,0.00,VWS V14.01,2013-06-21 06:08:00,
2013-06-21 02:09:00,66.8,63.8,30.25,NE,55,0.0,1.0,90,0.00,,SKC,0.00,0.00,VWS V14.01,2013-06-21 06:09:00,
2013-06-21 02:11:00,66.8,63.8,30.25,NE,55,0.0,1.0,90,0.00,,SKC,0.00,0.00,VWS V14.01,2013-06-21 06:11:00,
2013-06-21 02:12:00,66.8,63.8,30.25,NE,55,0.0,1.0,90,0.00,,SKC,0.00,0.00,VWS V14.01,2013-06-21 06:12:00,
2013-06-21 02:13:00,66.8,63.8,30.25,NE,55,0.0,1.0,90,0.00,,SKC,0.00,0.00,VWS V14.01,2013-06-21 06:13:00,
2013-06-21 02:14:00,66.8,63.8,30.25,NE,55,0.0,1.0,90,0.00,,SKC,0.00,0.00,VWS V14.01,2013-06-21 06:14:00,
2013-06-21 02:16:00,66.8,63.8,30.25,NE,55,0.0,1.0,90,0.00,,SKC,0.00,0.00,VWS V14.01,2013-06-21 06:16:00,
2013-06-21 02:17:00,66.7,63.7,30.25,NE,55,0.0,1.0,90,0.00,,SKC,0.00,0.00,VWS V14.01,2013-06-21 06:17:00,
2013-06-21 02:19:00,66.7,63.7,30.25,NE,55,0.0,1.0,90,0.00,,SKC,0.00,0.00,VWS V14.01,2013-06-21 06:19:00,
2013-06-21 02:22:00,66.7,63.7,30.24,NE,55,0.0,1.0,90,0.00,,SKC,0.00,0.00,VWS V14.01,2013-06-21 06:22:00,
2013-06-21 02:24:00,66.6,63.6,30.24,NE,55,0.0,1.0,90,0.00,,SKC,0.00,0.00,VWS V14.01,2013-06-21 06:24:00,
2013-06-21 02:27:00,66.5,63.2,30.25,NE,55,0.0,1.0,89,0.00,,SKC,0.00,0.00,VWS V14.01,2013-06-21 06:27:00,
2013-06-21 02:29:00,66.5,63.2,30.24,NE,55,0.0,1.0,89,0.00,,SKC,0.00,0.00,VWS V14.01,2013-06-21 06:29:00,
2013-06-21 02:30:00,66.5,63.2,30.24,NE,55,0.0,1.0,89,0.00,,SKC,0.00,0.00,VWS V14.01,2013-06-21 06:30:00,
2013-06-21 02:32:00,66.5,63.2,30.24,NE,55,0.0,0.0,89,0.00,,SKC,0.00,0.00,VWS V14.01,2013-06-21 06:32:00,
2013-06-21 02:35:00,66.5,63.2,30.24,NE,55,0.0,0.0,89,0.00,,SKC,0.00,0.00,VWS V14.01,2013-06-21 06:35:00,
2013-06-21 02:37:00,66.5,63.5,30.24,NE,55,0.0,0.0,90,0.00,,SKC,0.00,0.00,VWS V14.01,2013-06-21 06:37:00,
2013-06-21 02:38:00,66.5,63.5,30.24,NE,55,0.0,0.0,90,0.00,,SKC,0.00,0.00,VWS V14.01,2013-06-21 06:38:00,
2013-06-21 02:40:00,66.4,63.1,30.24,NE,55,0.0,0.0,89,0.00,,SKC,0.00,0.00,VWS V14.01,2013-06-21 06:40:00,
2013-06-21 02:41:00,66.4,63.1,30.24,NE,55,0.0,0.0,89,0.00,,SKC,0.00,0.00,VWS V14.01,2013-06-21 06:41:00,
2013-06-21 02:42:00,66.4,63.1,30.24,NE,55,0.0,2.0,89,0.00,,SKC,0.00,0.00,VWS V14.01,2013-06-21 06:42:00,
2013-06-21 02:43:00,66.4,63.1,30.24,NE,55,0.0,2.0,89,0.00,,SKC,0.00,0.00,VWS V14.01,2013-06-21 06:43:00,
2013-06-21 02:45:00,66.3,63.0,30.24,NE,55,0.0,2.0,89,0.00,,SKC,0.00,0.00,VWS V14.01,2013-06-21 06:45:00,
2013-06-21 02:46:00,66.3,63.0,30.24,NE,55,0.0,2.0,89,0.00,,SKC,0.00,0.00,VWS V14.01,2013-06-21 06:46:00,
2013-06-21 02:47:00,66.3,63.0,30.24,NE,55,0.0,2.0,89,0.00,,SKC,0.00,0.00,VWS V14.01,2013-06-21 06:47:00,
2013-06-21 02:48:00,66.3,63.0,30.24,NE,55,0.0,2.0,89,0.00,,SKC,0.00,0.00,VWS V14.01,2013-06-21 06:48:00,
2013-06-21 02:51:00,66.3,63.3,30.25,NE,55,0.0,2.0,90,0.00,,SKC,0.00,0.00,VWS V14.01,2013-06-21 06:51:00,
2013-06-21 02:52:00,66.3,63.3,30.25,NE,55,0.0,2.0,90,0.00,,SKC,0.00,0.00,VWS V14.01,2013-06-21 06:52:00,
2013-06-21 02:53:00,66.3,63.3,30.25,NE,55,0.0,2.0,90,0.00,,SKC,0.00,0.00,VWS V14.01,2013-06-21 06:53:00,
2013-06-21 02:56:00,66.2,63.2,30.25,NE,55,0.0,2.0,90,0.00,,SKC,0.00,0.00,VWS V14.01,2013-06-21 06:56:00,
2013-06-21 02:57:00,66.2,63.2,30.25,NE,55,0.0,2.0,90,0.00,,SKC,0.00,0.00,VWS V14.01,2013-06-21 06:57:00,
2013-06-21 02:58:00,66.2,63.2,30.25,NE,55,0.0,2.0,90,0.00,,SKC,0.00,0.00,VWS V14.01,2013-06-21 06:58:00,
2013-06-21 02:59:00,66.2,63.2,30.25,NE,55,0.0,2.0,90,0.00,,SKC,0.00,0.00,VWS V14.01,2013-06-21 06:59:00,
2013-06-21 03:01:00,66.1,63.1,30.25,NE,55,0.0,2.0,90,0.00,,SKC,0.00,0.00,VWS V14.01,2013-06-21 07:01:00,
2013-06-21 03:02:00,66.1,63.1,30.25,NE,55,0.0,0.0,90,0.00,,SKC,0.00,0.00,VWS V14.01,2013-06-21 07:02:00,
2013-06-21 03:04:00,66.0,63.0,30.25,NE,55,1.0,2.0,90,0.00,,SKC,0.00,0.00,VWS V14.01,2013-06-21 07:04:00,
2013-06-21 03:06:00,65.9,62.9,30.25,NE,55,0.0,2.0,90,0.00,,SKC,0.00,0.00,VWS V14.01,2013-06-21 07:06:00,
2013-06-21 03:07:00,65.9,62.9,30.25,NE,55,0.0,2.0,90,0.00,,SKC,0.00,0.00,VWS V14.01,2013-06-21 07:07:00,
2013-06-21 03:09:00,65.8,62.8,30.25,NE,55,0.0,2.0,90,0.00,,SKC,0.00,0.00,VWS V14.01,2013-06-21 07:09:00,
2013-06-21 03:12:00,65.6,62.6,30.25,NE,55,0.0,2.0,90,0.00,,SKC,0.00,0.00,VWS V14.01,2013-06-21 07:12:00,
2013-06-21 03:13:00,65.6,62.6,30.25,NE,55,0.0,2.0,90,0.00,,SKC,0.00,0.00,VWS V14.01,2013-06-21 07:13:00,
2013-06-21 03:14:00,65.6,62.6,30.25,NE,55,0.0,2.0,90,0.00,,SKC,0.00,0.00,VWS V14.01,2013-06-21 07:14:00,
2013-06-21 03:17:00,65.4,62.4,30.25,NE,55,0.0,4.0,90,0.00,,SKC,0.00,0.00,VWS V14.01,2013-06-21 07:17:00,
2013-06-21 03:18:00,65.4,62.1,30.25,NE,55,0.0,4.0,89,0.00,,SKC,0.00,0.00,VWS V14.01,2013-06-21 07:18:00,
2013-06-21 03:19:00,65.3,62.0,30.24,NE,55,0.0,4.0,89,0.00,,SKC,0.00,0.00,VWS V14.01,2013-06-21 07:19:00,
2013-06-21 03:20:00,65.3,62.0,30.24,NE,55,0.0,4.0,89,0.00,,SKC,0.00,0.00,VWS V14.01,2013-06-21 07:20:00,
2013-06-21 03:22:00,65.2,61.9,30.24,NE,55,0.0,4.0,89,0.00,,SKC,0.00,0.00,VWS V14.01,2013-06-21 07:22:00,
2013-06-21 03:23:00,65.2,61.9,30.24,NE,55,0.0,4.0,89,0.00,,SKC,0.00,0.00,VWS V14.01,2013-06-21 07:23:00,
2013-06-21 03:24:00,65.2,61.9,30.24,NE,55,0.0,4.0,89,0.00,,SKC,0.00,0.00,VWS V14.01,2013-06-21 07:24:00,
2013-06-21 03:25:00,65.1,61.8,30.24,NE,55,0.0,4.0,89,0.00,,SKC,0.00,0.00,VWS V14.01,2013-06-21 07:25:00,
2013-06-21 03:27:00,65.0,61.7,30.24,NE,55,0.0,4.0,89,0.00,,SKC,0.00,0.00,VWS V14.01,2013-06-21 07:27:00,
2013-06-21 03:28:00,65.0,61.7,30.24,NE,55,0.0,4.0,89,0.00,,SKC,0.00,0.00,VWS V14.01,2013-06-21 07:28:00,
2013-06-21 03:29:00,65.0,61.7,30.24,NE,55,0.0,4.0,89,0.00,,SKC,0.00,0.00,VWS V14.01,2013-06-21 07:29:00,
2013-06-21 03:30:00,65.0,61.7,30.24,NE,55,0.0,4.0,89,0.00,,SKC,0.00,0.00,VWS V14.01,2013-06-21 07:30:00,
2013-06-21 03:32:00,64.9,61.6,30.24,NE,55,0.0,0.0,89,0.00,,SKC,0.00,0.00,VWS V14.01,2013-06-21 07:32:00,
2013-06-21 03:33:00,64.9,61.6,30.24,NE,55,0.0,0.0,89,0.00,,SKC,0.00,0.00,VWS V14.01,2013-06-21 07:33:00,
2013-06-21 03:34:00,64.9,61.6,30.24,NE,55,0.0,0.0,89,0.00,,SKC,0.00,0.00,VWS V14.01,2013-06-21 07:34:00,
2013-06-21 03:35:00,64.9,61.6,30.24,NE,55,0.0,0.0,89,0.00,,SKC,0.00,0.00,VWS V14.01,2013-06-21 07:35:00,
2013-06-21 03:36:00,64.9,61.6,30.24,NE,55,0.0,0.0,89,0.00,,SKC,0.00,0.00,VWS V14.01,2013-06-21 07:36:00,
2013-06-21 03:38:00,64.8,61.5,30.24,NE,55,0.0,1.0,89,0.00,,SKC,0.00,0.00,VWS V14.01,2013-06-21 07:38:00,
2013-06-21 03:39:00,64.8,61.5,30.24,NE,55,0.0,1.0,89,0.00,,SKC,0.00,0.00,VWS V14.01,2013-06-21 07:39:00,
2013-06-21 03:40:00,64.8,61.5,30.24,NE,55,0.0,1.0,89,0.00,,SKC,0.00,0.00,VWS V14.01,2013-06-21 07:40:00,
2013-06-21 03:41:00,64.7,61.4,30.24,NE,55,0.0,1.0,89,0.00,,SKC,0.00,0.00,VWS V14.01,2013-06-21 07:41:00,
2013-06-21 03:43:00,64.7,61.7,30.25,NE,55,0.0,1.0,90,0.00,,SKC,0.00,0.00,VWS V14.01,2013-06-21 07:43:00,
2013-06-21 03:44:00,64.6,61.6,30.25,NE,55,0.0,1.0,90,0.00,,SKC,0.00,0.00,VWS V14.01,2013-06-21 07:44:00,
2013-06-21 03:46:00,64.5,61.5,30.25,NE,55,0.0,1.0,90,0.00,,SKC,0.00,0.00,VWS V14.01,2013-06-21 07:46:00,
2013-06-21 03:47:00,64.5,61.5,30.25,NE,55,0.0,1.0,90,0.00,,SKC,0.00,0.00,VWS V14.01,2013-06-21 07:47:00,
2013-06-21 03:49:00,64.3,61.6,30.25,NE,55,0.0,1.0,91,0.00,,SKC,0.00,0.00,VWS V14.01,2013-06-21 07:49:00,
2013-06-21 03:50:00,64.2,61.5,30.25,NE,55,0.0,1.0,91,0.00,,SKC,0.00,0.00,VWS V14.01,2013-06-21 07:50:00,
2013-06-21 03:51:00,64.2,61.5,30.25,NE,55,0.0,1.0,91,0.00,,SKC,0.00,0.00,VWS V14.01,2013-06-21 07:51:00,
2013-06-21 03:52:00,64.1,61.4,30.25,NE,55,0.0,1.0,91,0.00,,SKC,0.00,0.00,VWS V14.01,2013-06-21 07:52:00,
2013-06-21 03:54:00,64.0,61.6,30.25,NE,55,0.0,1.0,92,0.00,,SKC,0.00,0.00,VWS V14.01,2013-06-21 07:54:00,
2013-06-21 03:55:00,63.9,61.5,30.25,NE,55,0.0,1.0,92,0.00,,SKC,0.00,0.00,VWS V14.01,2013-06-21 07:55:00,
2013-06-21 03:56:00,63.9,61.5,30.25,NE,55,0.0,1.0,92,0.00,,SKC,0.00,0.00,VWS V14.01,2013-06-21 07:56:00,
2013-06-21 03:58:00,63.8,61.4,30.25,NE,55,0.0,1.0,92,0.00,,SKC,0.00,0.00,VWS V14.01,2013-06-21 07:58:00,
2013-06-21 03:59:00,63.8,61.4,30.25,NE,55,0.0,1.0,92,0.00,,SKC,0.00,0.00,VWS V14.01,2013-06-21 07:59:00,
2013-06-21 04:00:00,63.8,61.4,30.25,NE,55,0.0,1.0,92,0.00,,SKC,0.00,0.00,VWS V14.01,2013-06-21 08:00:00,
2013-06-21 04:01:00,63.7,61.0,30.25,NE,55,0.0,0.0,91,0.00,,SKC,0.00,0.00,VWS V14.01,2013-06-21 08:01:00,
2013-06-21 04:03:00,63.7,61.0,30.25,NE,55,0.0,0.0,91,0.00,,SKC,0.00,0.00,VWS V14.01,2013-06-21 08:03:00,
2013-06-21 04:04:00,63.6,60.9,30.25,NE,55,0.0,0.0,91,0.00,,SKC,0.00,0.00,VWS V14.01,2013-06-21 08:04:00,
2013-06-21 04:05:00,63.6,60.9,30.25,NE,55,0.0,0.0,91,0.00,,SKC,0.00,0.00,VWS V14.01,2013-06-21 08:05:00,
2013-06-21 04:06:00,63.6,60.9,30.25,NE,55,0.0,1.0,91,0.00,,SKC,0.00,0.00,VWS V14.01,2013-06-21 08:06:00,
2013-06-21 04:07:00,63.6,60.9,30.25,NE,55,0.0,1.0,91,0.00,,SKC,0.00,0.00,VWS V14.01,2013-06-21 08:07:00,
2013-06-21 04:08:00,63.6,60.9,30.25,NE,55,0.0,2.0,91,0.00,,SKC,0.00,0.00,VWS V14.01,2013-06-21 08:08:00,
2013-06-21 04:10:00,63.6,60.9,30.25,NE,55,0.0,2.0,91,0.00,,SKC,0.00,0.00,VWS V14.01,2013-06-21 08:10:00,
2013-06-21 04:11:00,63.5,60.8,30.25,NE,55,0.0,2.0,91,0.00,,SKC,0.00,0.00,VWS V14.01,2013-06-21 08:11:00,
2013-06-21 04:12:00,63.5,60.8,30.25,NE,55,0.0,2.0,91,0.00,,SKC,0.00,0.00,VWS V14.01,2013-06-21 08:12:00,
2013-06-21 04:13:00,63.5,60.8,30.25,NE,55,0.0,2.0,91,0.00,,SKC,0.00,0.00,VWS V14.01,2013-06-21 08:13:00,
2013-06-21 04:15:00,63.5,60.8,30.25,NE,55,0.0,2.0,91,0.00,,SKC,0.00,0.00,VWS V14.01,2013-06-21 08:15:00,
2013-06-21 04:16:00,63.4,60.7,30.25,NE,55,0.0,2.0,91,0.00,,SKC,0.00,0.00,VWS V14.01,2013-06-21 08:16:00,
2013-06-21 04:17:00,63.4,60.7,30.25,NE,55,0.0,2.0,91,0.00,,SKC,0.00,0.00,VWS V14.01,2013-06-21 08:17:00,
2013-06-21 04:18:00,63.4,60.7,30.25,NE,55,0.0,2.0,91,0.00,,SKC,0.00,0.00,VWS V14.01,2013-06-21 08:18:00,
2013-06-21 04:20:00,63.4,60.7,30.25,NE,55,0.0,2.0,91,0.00,,SKC,0.00,0.00,VWS V14.01,2013-06-21 08:20:00,
2013-06-21 04:21:00,63.4,60.7,30.25,NE,55,0.0,2.0,91,0.00,,SKC,0.00,0.00,VWS V14.01,2013-06-21 08:21:00,
2013-06-21 04:22:00,63.3,60.6,30.25,NE,55,0.0,2.0,91,0.00,,SKC,0.00,0.00,VWS V14.01,2013-06-21 08:22:00,
2013-06-21 04:23:00,63.3,60.6,30.25,NE,55,0.0,2.0,91,0.00,,SKC,0.00,0.00,VWS V14.01,2013-06-21 08:23:00,
2013-06-21 04:25:00,63.2,60.5,30.25,NE,55,0.0,2.0,91,0.00,,SKC,0.00,0.00,VWS V14.01,2013-06-21 08:25:00,
2013-06-21 04:26:00,63.2,60.5,30.25,NE,55,0.0,2.0,91,0.00,,SKC,0.00,0.00,VWS V14.01,2013-06-21 08:26:00,
2013-06-21 04:27:00,63.2,60.5,30.25,NE,55,0.0,2.0,91,0.00,,SKC,0.00,0.00,VWS V14.01,2013-06-21 08:27:00,
2013-06-21 04:28:00,63.1,60.4,30.25,NE,55,1.0,2.0,91,0.00,,SKC,0.00,0.00,VWS V14.01,2013-06-21 08:28:00,
2013-06-21 04:31:00,63.0,60.3,30.25,NE,55,1.0,2.0,91,0.00,,SKC,0.00,0.00,VWS V14.01,2013-06-21 08:31:00,
2013-06-21 04:32:00,63.0,60.3,30.25,NE,55,0.0,1.0,91,0.00,,SKC,0.00,0.00,VWS V14.01,2013-06-21 08:32:00,
2013-06-21 04:33:00,62.9,60.5,30.25,NE,55,0.0,1.0,92,0.00,,SKC,0.00,0.00,VWS V14.01,2013-06-21 08:33:00,
2013-06-21 04:36:00,62.7,60.0,30.25,NE,55,0.0,1.0,91,0.00,,SKC,0.00,0.00,VWS V14.01,2013-06-21 08:36:00,
2013-06-21 04:37:00,62.7,60.0,30.25,NE,55,0.0,1.0,91,0.00,,SKC,0.00,0.00,VWS V14.01,2013-06-21 08:37:00,
2013-06-21 04:39:00,62.6,59.9,30.25,NE,55,0.0,1.0,91,0.00,,SKC,0.00,0.00,VWS V14.01,2013-06-21 08:39:00,
2013-06-21 04:41:00,62.5,59.8,30.25,NE,55,1.0,1.0,91,0.00,,SKC,0.00,0.00,VWS V14.01,2013-06-21 08:41:00,
2013-06-21 04:42:00,62.4,59.7,30.25,NE,55,0.0,1.0,91,0.00,,SKC,0.00,0.00,VWS V14.01,2013-06-21 08:42:00,
2013-06-21 04:44:00,62.3,60.0,30.25,NE,55,1.0,2.0,92,0.00,,SKC,0.00,0.00,VWS V14.01,2013-06-21 08:44:00,
2013-06-21 04:46:00,62.2,59.8,30.25,NE,55,0.0,2.0,92,0.00,,SKC,0.00,0.00,VWS V14.01,2013-06-21 08:46:00,
2013-06-21 04:47:00,62.2,59.8,30.25,NE,55,0.0,2.0,92,0.00,,SKC,0.00,0.00,VWS V14.01,2013-06-21 08:47:00,
2013-06-21 04:48:00,62.1,59.8,30.25,NE,55,0.0,2.0,92,0.00,,SKC,0.00,0.00,VWS V14.01,2013-06-21 08:48:00,
2013-06-21 04:49:00,62.1,59.5,30.25,NE,55,0.0,2.0,91,0.00,,SKC,0.00,0.00,VWS V14.01,2013-06-21 08:49:00,
2013-06-21 04:51:00,62.0,59.7,30.25,NE,55,0.0,2.0,92,0.00,,SKC,0.00,0.00,VWS V14.01,2013-06-21 08:51:00,
2013-06-21 04:52:00,61.9,59.5,30.25,NE,55,0.0,2.0,92,0.00,,SKC,0.00,0.00,VWS V14.01,2013-06-21 08:52:00,
2013-06-21 04:53:00,61.9,59.5,30.25,NE,55,0.0,2.0,92,0.00,,SKC,0.00,0.00,VWS V14.01,2013-06-21 08:53:00,
2013-06-21 04:54:00,61.9,59.5,30.25,NE,55,0.0,2.0,92,0.00,,SKC,0.00,0.00,VWS V14.01,2013-06-21 08:54:00,
2013-06-21 04:57:00,61.8,59.5,30.25,NE,55,2.0,3.0,92,0.00,,SKC,0.00,0.00,VWS V14.01,2013-06-21 08:57:00,
2013-06-21 04:58:00,61.7,59.4,30.25,NE,55,1.0,3.0,92,0.00,,SKC,0.00,0.00,VWS V14.01,2013-06-21 08:58:00,
2013-06-21 04:59:00,61.6,59.3,30.25,NE,55,1.0,3.0,92,0.00,,SKC,0.00,0.00,VWS V14.01,2013-06-21 08:59:00,
2013-06-21 05:02:00,61.5,59.2,30.25,NE,55,0.0,0.0,92,0.00,,SKC,0.00,0.00,VWS V14.01,2013-06-21 09:02:00,
2013-06-21 05:03:00,61.5,59.2,30.25,NE,55,0.0,0.0,92,0.00,,SKC,0.00,0.00,VWS V14.01,2013-06-21 09:03:00,
2013-06-21 05:04:00,61.4,59.1,30.25,NE,55,0.0,0.0,92,0.00,,SKC,0.00,0.00,VWS V14.01,2013-06-21 09:04:00,
2013-06-21 05:07:00,61.3,59.0,30.25,NE,55,2.0,2.0,92,0.00,,SKC,0.00,0.00,VWS V14.01,2013-06-21 09:07:00,
2013-06-21 05:08:00,61.3,59.0,30.25,NE,55,2.0,3.0,92,0.00,,SKC,0.00,0.00,VWS V14.01,2013-06-21 09:08:00,
2013-06-21 05:09:00,61.2,58.9,30.25,NE,35,2.0,4.0,92,0.00,,SKC,0.00,0.00,VWS V14.01,2013-06-21 09:09:00,
2013-06-21 05:12:00,61.0,58.7,30.25,North,360,2.0,4.0,92,0.00,,SKC,0.00,0.00,VWS V14.01,2013-06-21 09:12:00,
2013-06-21 05:13:00,61.0,58.7,30.25,North,360,2.0,4.0,92,0.00,,SKC,0.00,0.00,VWS V14.01,2013-06-21 09:13:00,
2013-06-21 05:14:00,60.9,58.6,30.25,North,360,3.0,4.0,92,0.00,,SKC,0.00,0.00,VWS V14.01,2013-06-21 09:14:00,
2013-06-21 05:17:00,60.8,58.5,30.25,North,360,2.0,4.0,92,0.00,,SKC,0.00,0.00,VWS V14.01,2013-06-21 09:17:00,
2013-06-21 05:18:00,60.8,58.5,30.25,North,360,2.0,4.0,92,0.00,,SKC,0.00,0.00,VWS V14.01,2013-06-21 09:18:00,
2013-06-21 05:19:00,60.7,58.4,30.25,North,360,1.0,4.0,92,0.00,,SKC,0.00,0.00,VWS V14.01,2013-06-21 09:19:00,
2013-06-21 05:22:00,60.6,58.0,30.25,North,360,0.0,4.0,91,0.00,,SKC,0.00,0.00,VWS V14.01,2013-06-21 09:22:00,
2013-06-21 05:23:00,60.6,58.0,30.25,North,360,0.0,4.0,91,0.00,,SKC,0.00,0.00,VWS V14.01,2013-06-21 09:23:00,
2013-06-21 05:24:00,60.6,58.0,30.25,North,360,0.0,4.0,91,0.00,,SKC,0.00,0.00,VWS V14.01,2013-06-21 09:24:00,
2013-06-21 05:25:00,60.6,58.0,30.25,North,360,2.0,4.0,91,0.00,,SKC,0.00,0.00,VWS V14.01,2013-06-21 09:25:00,
2013-06-21 05:28:00,60.5,57.9,30.26,North,360,0.0,4.0,91,0.00,,SKC,0.00,0.00,VWS V14.01,2013-06-21 09:28:00,
2013-06-21 05:29:00,60.5,57.9,30.26,North,360,2.0,4.0,91,0.00,,SKC,0.00,0.00,VWS V14.01,2013-06-21 09:29:00,
2013-06-21 05:30:00,60.5,57.9,30.26,North,360,1.0,4.0,91,0.00,,SKC,0.00,0.00,VWS V14.01,2013-06-21 09:30:00,
2013-06-21 05:33:00,60.5,58.2,30.26,North,360,0.0,2.0,92,0.00,,SKC,0.00,0.00,VWS V14.01,2013-06-21 09:33:00,
2013-06-21 05:34:00,60.4,58.1,30.26,North,360,0.0,2.0,92,0.00,,SKC,0.00,0.00,VWS V14.01,2013-06-21 09:34:00,
2013-06-21 05:35:00,60.4,57.8,30.26,North,360,0.0,2.0,91,0.00,,SKC,0.00,0.00,VWS V14.01,2013-06-21 09:35:00,
2013-06-21 05:38:00,60.3,57.7,30.26,North,360,2.0,2.0,91,0.00,,SKC,0.00,0.00,VWS V14.01,2013-06-21 09:38:00,
2013-06-21 05:39:00,60.3,57.4,30.26,North,360,1.0,3.0,90,0.00,,SKC,0.00,0.00,VWS V14.01,2013-06-21 09:39:00,
2013-06-21 05:40:00,60.3,57.4,30.26,North,360,3.0,3.0,90,0.00,,SKC,0.00,0.00,VWS V14.01,2013-06-21 09:40:00,
2013-06-21 05:41:00,60.3,57.4,30.26,North,360,2.0,3.0,90,0.00,,SKC,0.00,0.00,VWS V14.01,2013-06-21 09:41:00,
2013-06-21 05:43:00,60.3,57.7,30.26,North,360,3.0,3.0,91,0.00,,SKC,0.00,0.00,VWS V14.01,2013-06-21 09:43:00,
2013-06-21 05:44:00,60.3,57.7,30.26,North,360,2.0,3.0,91,0.00,,SKC,0.00,0.00,VWS V14.01,2013-06-21 09:44:00,
2013-06-21 05:45:00,60.3,57.7,30.26,North,360,2.0,3.0,91,0.00,,SKC,0.00,0.00,VWS V14.01,2013-06-21 09:45:00,
2013-06-21 05:46:00,60.3,57.7,30.26,North,355,3.0,3.0,91,0.00,,SKC,0.00,0.00,VWS V14.01,2013-06-21 09:46:00,
2013-06-21 05:48:00,60.2,57.3,30.26,North,355,1.0,3.0,90,0.00,,SKC,0.00,0.00,VWS V14.01,2013-06-21 09:48:00,
2013-06-21 05:49:00,60.1,57.2,30.26,North,355,1.0,3.0,90,0.00,,SKC,0.00,0.00,VWS V14.01,2013-06-21 09:49:00,
2013-06-21 05:50:00,60.1,57.2,30.26,North,355,2.0,3.0,90,0.00,,SKC,0.00,0.00,VWS V14.01,2013-06-21 09:50:00,
2013-06-21 05:51:00,60.1,57.2,30.26,North,355,2.0,3.0,90,0.00,,SKC,0.00,0.00,VWS V14.01,2013-06-21 09:51:00,
2013-06-21 05:53:00,60.0,56.8,30.26,North,355,2.0,3.0,89,0.00,,SKC,0.00,0.00,VWS V14.01,2013-06-21 09:53:00,
2013-06-21 05:54:00,60.0,56.8,30.26,North,355,2.0,3.0,89,0.00,,SKC,0.00,0.00,VWS V14.01,2013-06-21 09:54:00,
2013-06-21 05:55:00,60.0,56.8,30.26,North,355,2.0,3.0,89,0.00,,SKC,0.00,0.00,VWS V14.01,2013-06-21 09:55:00,
2013-06-21 05:56:00,60.0,56.8,30.26,North,355,2.0,3.0,89,0.00,,SKC,0.00,0.00,VWS V14.01,2013-06-21 09:56:00,
2013-06-21 05:59:00,59.9,56.7,30.26,North,355,1.0,3.0,89,0.00,,SKC,0.00,0.00,VWS V14.01,2013-06-21 09:59:00,
2013-06-21 06:00:00,59.9,56.7,30.26,North,355,0.0,3.0,89,0.00,,SKC,0.00,5.00,VWS V14.01,2013-06-21 10:00:00,
2013-06-21 06:01:00,59.9,56.7,30.26,North,355,0.0,3.0,89,0.00,,SKC,0.00,5.00,VWS V14.01,2013-06-21 10:01:00,
2013-06-21 06:04:00,59.9,56.7,30.26,North,355,0.0,1.0,89,0.00,,SKC,0.00,5.00,VWS V14.01,2013-06-21 10:04:00,
2013-06-21 06:05:00,59.8,56.6,30.26,North,355,0.0,1.0,89,0.00,,SKC,0.00,7.00,VWS V14.01,2013-06-21 10:05:00,
2013-06-21 06:06:00,59.9,57.0,30.26,North,355,0.0,1.0,90,0.00,,SKC,0.00,7.00,VWS V14.01,2013-06-21 10:06:00,
2013-06-21 06:09:00,59.7,57.1,30.26,North,355,0.0,1.0,91,0.00,,SKC,0.00,9.00,VWS V14.01,2013-06-21 10:09:00,
2013-06-21 06:10:00,59.6,57.0,30.26,North,355,1.0,1.0,91,0.00,,SKC,0.00,9.00,VWS V14.01,2013-06-21 10:10:00,
2013-06-21 06:11:00,59.5,56.9,30.26,North,355,0.0,2.0,91,0.00,,SKC,0.00,11.00,VWS V14.01,2013-06-21 10:11:00,
2013-06-21 06:12:00,59.5,56.9,30.26,North,355,0.0,2.0,91,0.00,,SKC,0.00,11.00,VWS V14.01,2013-06-21 10:12:00,
2013-06-21 06:14:00,59.4,56.8,30.26,North,355,0.0,2.0,91,0.00,,SKC,0.00,12.00,VWS V14.01,2013-06-21 10:14:00,
2013-06-21 06:15:00,59.4,56.8,30.26,North,355,0.0,2.0,91,0.00,,SKC,0.00,12.00,VWS V14.01,2013-06-21 10:15:00,
2013-06-21 06:17:00,59.4,56.8,30.26,North,355,0.0,2.0,91,0.00,,SKC,0.00,16.00,VWS V14.01,2013-06-21 10:17:00,
2013-06-21 06:19:00,59.3,56.7,30.26,North,355,0.0,2.0,91,0.00,,SKC,0.00,16.00,VWS V14.01,2013-06-21 10:19:00,
2013-06-21 06:20:00,59.3,56.7,30.26,North,355,1.0,2.0,91,0.00,,SKC,0.00,18.00,VWS V14.01,2013-06-21 10:20:00,
2013-06-21 06:22:00,59.2,56.3,30.26,North,355,0.0,2.0,90,0.00,,SKC,0.00,19.00,VWS V14.01,2013-06-21 10:22:00,
2013-06-21 06:24:00,59.2,56.3,30.26,North,355,0.0,2.0,90,0.00,,SKC,0.00,19.00,VWS V14.01,2013-06-21 10:24:00,
2013-06-21 06:25:00,59.1,56.2,30.26,North,355,0.0,2.0,90,0.00,,SKC,0.00,21.00,VWS V14.01,2013-06-21 10:25:00,
2013-06-21 06:27:00,59.1,56.2,30.26,North,355,0.0,2.0,90,0.00,,SKC,0.00,23.00,VWS V14.01,2013-06-21 10:27:00,
2013-06-21 06:28:00,59.1,56.2,30.26,North,355,0.0,2.0,90,0.00,,SKC,0.00,23.00,VWS V14.01,2013-06-21 10:28:00,
2013-06-21 06:30:00,59.1,55.9,30.26,North,355,0.0,2.0,89,0.00,,SKC,0.00,25.00,VWS V14.01,2013-06-21 10:30:00,
2013-06-21 06:32:00,59.1,56.2,30.26,North,355,0.0,0.0,90,0.00,,SKC,0.00,26.00,VWS V14.01,2013-06-21 10:32:00,
2013-06-21 06:33:00,59.0,56.1,30.27,North,355,0.0,0.0,90,0.00,,SKC,0.00,26.00,VWS V14.01,2013-06-21 10:33:00,
2013-06-21 06:35:00,59.1,56.2,30.27,North,355,0.0,0.0,90,0.00,,SKC,0.00,28.00,VWS V14.01,2013-06-21 10:35:00,
2013-06-21 06:37:00,59.0,56.1,30.27,North,355,0.0,0.0,90,0.00,,SKC,0.00,30.00,VWS V14.01,2013-06-21 10:37:00,
2013-06-21 06:38:00,59.0,56.1,30.27,North,355,0.0,0.0,90,0.00,,SKC,0.00,30.00,VWS V14.01,2013-06-21 10:38:00,
2013-06-21 06:40:00,59.0,56.1,30.27,North,355,0.0,1.0,90,0.00,,SKC,0.00,32.00,VWS V14.01,2013-06-21 10:40:00,
2013-06-21 06:41:00,59.0,56.1,30.27,North,355,0.0,1.0,90,0.00,,SKC,0.00,32.00,VWS V14.01,2013-06-21 10:41:00,
2013-06-21 06:43:00,59.1,56.5,30.27,North,355,1.0,1.0,91,0.00,,SKC,0.00,33.00,VWS V14.01,2013-06-21 10:43:00,
2013-06-21 06:45:00,59.1,56.5,30.27,North,355,0.0,1.0,91,0.00,,SKC,0.00,35.00,VWS V14.01,2013-06-21 10:45:00,
2013-06-21 06:46:00,59.1,56.5,30.27,North,355,0.0,1.0,91,0.00,,SKC,0.00,35.00,VWS V14.01,2013-06-21 10:46:00,
2013-06-21 06:48:00,59.1,56.5,30.27,North,355,1.0,1.0,91,0.00,,SKC,0.00,37.00,VWS V14.01,2013-06-21 10:48:00,
2013-06-21 06:51:00,59.1,56.5,30.27,North,355,0.0,2.0,91,0.00,,SKC,0.00,39.00,VWS V14.01,2013-06-21 10:51:00,
2013-06-21 06:53:00,59.1,56.5,30.27,North,355,1.0,2.0,91,0.00,,SKC,0.00,42.00,VWS V14.01,2013-06-21 10:53:00,
2013-06-21 06:56:00,59.2,56.6,30.27,North,355,0.0,2.0,91,0.00,,SKC,0.00,46.00,VWS V14.01,2013-06-21 10:56:00,
2013-06-21 06:58:00,59.2,56.6,30.27,North,355,0.0,2.0,91,0.00,,SKC,0.00,49.00,VWS V14.01,2013-06-21 10:58:00,
2013-06-21 07:01:00,59.3,57.0,30.27,North,355,0.0,2.0,92,0.00,,SKC,0.00,54.00,VWS V14.01,2013-06-21 11:01:00,
2013-06-21 07:03:00,59.3,57.0,30.27,North,355,0.0,0.0,92,0.00,,SKC,0.00,58.00,VWS V14.01,2013-06-21 11:03:00,
2013-06-21 07:06:00,59.4,56.8,30.27,North,355,0.0,0.0,91,0.00,,SKC,0.00,63.00,VWS V14.01,2013-06-21 11:06:00,
2013-06-21 07:08:00,59.5,57.2,30.27,North,355,0.0,0.0,92,0.00,,SKC,0.00,69.00,VWS V14.01,2013-06-21 11:08:00,
2013-06-21 07:09:00,59.5,57.2,30.27,North,355,0.0,0.0,92,0.00,,SKC,0.00,70.00,VWS V14.01,2013-06-21 11:09:00,
2013-06-21 07:11:00,59.6,57.3,30.27,North,355,0.0,0.0,92,0.00,,SKC,0.00,74.00,VWS V14.01,2013-06-21 11:11:00,
2013-06-21 07:13:00,59.7,57.1,30.27,North,355,0.0,0.0,91,0.00,,SKC,0.00,81.00,VWS V14.01,2013-06-21 11:13:00,
2013-06-21 07:14:00,59.7,57.1,30.27,North,355,0.0,0.0,91,0.00,,SKC,0.00,81.00,VWS V14.01,2013-06-21 11:14:00,
2013-06-21 07:16:00,59.8,56.9,30.27,North,355,0.0,0.0,90,0.00,,SKC,0.00,86.00,VWS V14.01,2013-06-21 11:16:00,
2013-06-21 07:19:00,59.9,56.7,30.27,North,355,0.0,0.0,89,0.00,,SKC,0.00,93.00,VWS V14.01,2013-06-21 11:19:00,
2013-06-21 07:21:00,60.0,56.8,30.27,North,355,0.0,1.0,89,0.00,,SKC,0.00,100.00,VWS V14.01,2013-06-21 11:21:00,
2013-06-21 07:22:00,60.1,56.8,30.27,North,355,1.0,1.0,89,0.00,,SKC,0.00,104.00,VWS V14.01,2013-06-21 11:22:00,
2013-06-21 07:24:00,60.3,56.7,30.27,North,355,1.0,2.0,88,0.00,,SKC,0.00,109.00,VWS V14.01,2013-06-21 11:24:00,
2013-06-21 07:25:00,60.4,56.8,30.27,North,355,0.0,2.0,88,0.00,,SKC,0.00,114.00,VWS V14.01,2013-06-21 11:25:00,
2013-06-21 07:26:00,60.5,56.9,30.27,North,355,0.0,2.0,88,0.00,,SKC,0.00,116.00,VWS V14.01,2013-06-21 11:26:00,
2013-06-21 07:27:00,60.5,56.9,30.27,North,355,0.0,2.0,88,0.00,,SKC,0.00,118.00,VWS V14.01,2013-06-21 11:27:00,
2013-06-21 07:29:00,60.7,57.1,30.27,North,355,0.0,3.0,88,0.00,,SKC,0.00,123.00,VWS V14.01,2013-06-21 11:29:00,
2013-06-21 07:30:00,60.8,57.2,30.27,North,355,0.0,3.0,88,0.00,,SKC,0.00,127.00,VWS V14.01,2013-06-21 11:30:00,
2013-06-21 07:31:00,60.8,57.2,30.27,North,355,0.0,0.0,88,0.00,,SKC,0.00,128.00,VWS V14.01,2013-06-21 11:31:00,
2013-06-21 07:32:00,61.0,57.4,30.27,North,355,0.0,0.0,88,0.00,,SKC,0.00,134.00,VWS V14.01,2013-06-21 11:32:00,
2013-06-21 07:34:00,61.1,57.5,30.27,North,355,0.0,1.0,88,0.00,,SKC,0.00,139.00,VWS V14.01,2013-06-21 11:34:00,
2013-06-21 07:35:00,61.2,57.3,30.27,North,355,0.0,1.0,87,0.00,,SKC,0.00,144.00,VWS V14.01,2013-06-21 11:35:00,
2013-06-21 07:36:00,61.3,57.4,30.27,North,355,1.0,2.0,87,0.00,,SKC,0.00,148.00,VWS V14.01,2013-06-21 11:36:00,
2013-06-21 07:37:00,61.3,57.4,30.27,North,355,0.0,2.0,87,0.00,,SKC,0.00,149.00,VWS V14.01,2013-06-21 11:37:00,
2013-06-21 07:38:00,61.4,57.5,30.27,North,355,0.0,2.0,87,0.00,,SKC,0.00,149.00,VWS V14.01,2013-06-21 11:38:00,
2013-06-21 07:39:00,61.5,57.6,30.27,North,355,0.0,2.0,87,0.00,,SKC,0.00,155.00,VWS V14.01,2013-06-21 11:39:00,
2013-06-21 07:40:00,61.6,57.7,30.27,North,355,0.0,2.0,87,0.00,,SKC,0.00,160.00,VWS V14.01,2013-06-21 11:40:00,
2013-06-21 07:42:00,61.7,57.8,30.27,North,355,0.0,2.0,87,0.00,,SKC,0.00,167.00,VWS V14.01,2013-06-21 11:42:00,
2013-06-21 07:43:00,61.8,57.9,30.27,North,355,0.0,2.0,87,0.00,,SKC,0.00,171.00,VWS V14.01,2013-06-21 11:43:00,
2013-06-21 07:44:00,62.1,58.5,30.27,North,355,0.0,2.0,88,0.00,,SKC,0.00,178.00,VWS V14.01,2013-06-21 11:44:00,
2013-06-21 07:46:00,62.3,58.7,30.27,North,355,0.0,2.0,88,0.00,,SKC,0.00,181.00,VWS V14.01,2013-06-21 11:46:00,
2013-06-21 07:47:00,62.5,58.9,30.27,North,355,0.0,2.0,88,0.00,,SKC,0.00,183.00,VWS V14.01,2013-06-21 11:47:00,
2013-06-21 07:48:00,62.6,59.0,30.27,North,355,0.0,2.0,88,0.00,,SKC,0.00,186.00,VWS V14.01,2013-06-21 11:48:00,
2013-06-21 07:50:00,62.9,59.0,30.27,North,355,0.0,2.0,87,0.00,,SKC,0.00,193.00,VWS V14.01,2013-06-21 11:50:00,
2013-06-21 07:51:00,63.0,59.1,30.27,North,355,0.0,2.0,87,0.00,,SKC,0.00,200.00,VWS V14.01,2013-06-21 11:51:00,
2013-06-21 07:53:00,63.3,58.7,30.27,North,355,0.0,2.0,85,0.00,,SKC,0.00,206.00,VWS V14.01,2013-06-21 11:53:00,
2013-06-21 07:55:00,63.5,58.2,30.27,North,355,0.0,2.0,83,0.00,,SKC,0.00,211.00,VWS V14.01,2013-06-21 11:55:00,
2013-06-21 07:56:00,63.7,58.5,30.27,North,355,0.0,2.0,83,0.00,,SKC,0.00,213.00,VWS V14.01,2013-06-21 11:56:00,
2013-06-21 07:58:00,64.0,58.7,30.27,North,355,0.0,2.0,83,0.00,,SKC,0.00,220.00,VWS V14.01,2013-06-21 11:58:00,
2013-06-21 08:00:00,64.2,58.9,30.27,North,355,0.0,2.0,83,0.00,,SKC,0.00,223.00,VWS V14.01,2013-06-21 12:00:00,
2013-06-21 08:01:00,64.2,58.3,30.27,North,355,0.0,2.0,81,0.00,,SKC,0.00,227.00,VWS V14.01,2013-06-21 12:01:00,
2013-06-21 08:03:00,64.3,58.3,30.27,North,355,0.0,1.0,81,0.00,,SKC,0.00,234.00,VWS V14.01,2013-06-21 12:03:00,
2013-06-21 08:04:00,64.4,58.8,30.27,North,355,0.0,1.0,82,0.00,,SKC,0.00,236.00,VWS V14.01,2013-06-21 12:04:00,
2013-06-21 08:05:00,64.6,59.0,30.27,North,355,0.0,1.0,82,0.00,,SKC,0.00,241.00,VWS V14.01,2013-06-21 12:05:00,
2013-06-21 08:06:00,64.7,59.1,30.28,North,355,0.0,1.0,82,0.00,,SKC,0.00,241.00,VWS V14.01,2013-06-21 12:06:00,
2013-06-21 08:08:00,64.9,59.3,30.28,North,355,0.0,1.0,82,0.00,,SKC,0.00,250.00,VWS V14.01,2013-06-21 12:08:00,
2013-06-21 08:09:00,65.0,59.4,30.28,North,355,0.0,1.0,82,0.00,,SKC,0.00,250.00,VWS V14.01,2013-06-21 12:09:00,
2013-06-21 08:10:00,65.3,59.7,30.28,North,355,0.0,1.0,82,0.00,,SKC,0.00,257.00,VWS V14.01,2013-06-21 12:10:00,
2013-06-21 08:11:00,65.4,59.8,30.28,North,355,0.0,1.0,82,0.00,,SKC,0.00,257.00,VWS V14.01,2013-06-21 12:11:00,
2013-06-21 08:13:00,65.7,59.7,30.28,North,355,0.0,1.0,81,0.00,,SKC,0.00,264.00,VWS V14.01,2013-06-21 12:13:00,
2013-06-21 08:14:00,65.8,59.8,30.28,North,355,0.0,1.0,81,0.00,,SKC,0.00,265.00,VWS V14.01,2013-06-21 12:14:00,
2013-06-21 08:16:00,66.1,60.1,30.28,North,355,0.0,1.0,81,0.00,,SKC,0.00,265.00,VWS V14.01,2013-06-21 12:16:00,
2013-06-21 08:18:00,66.4,60.4,30.28,North,355,0.0,1.0,81,0.00,,SKC,0.00,271.00,VWS V14.01,2013-06-21 12:18:00,
2013-06-21 08:20:00,66.5,60.8,30.28,North,355,0.0,1.0,82,0.00,,SKC,0.00,278.00,VWS V14.01,2013-06-21 12:20:00,
2013-06-21 08:21:00,66.5,60.5,30.28,North,355,1.0,1.0,81,0.00,,SKC,0.00,281.00,VWS V14.01,2013-06-21 12:21:00,
2013-06-21 08:23:00,66.7,60.3,30.28,ENE,59,0.0,3.0,80,0.00,,SKC,0.00,287.00,VWS V14.01,2013-06-21 12:23:00,
2013-06-21 08:25:00,66.7,60.3,30.28,ENE,61,1.0,3.0,80,0.00,,SKC,0.00,285.00,VWS V14.01,2013-06-21 12:25:00,
2013-06-21 08:26:00,66.8,60.1,30.28,ENE,61,1.0,3.0,79,0.00,,SKC,0.00,288.00,VWS V14.01,2013-06-21 12:26:00,
2013-06-21 08:28:00,66.9,59.5,30.28,ENE,61,0.0,3.0,77,0.00,,SKC,0.00,292.00,VWS V14.01,2013-06-21 12:28:00,
2013-06-21 08:30:00,67.0,59.6,30.28,ENE,61,1.0,3.0,77,0.00,,SKC,0.00,297.00,VWS V14.01,2013-06-21 12:30:00,
2013-06-21 08:31:00,67.1,58.9,30.28,ENE,61,0.0,3.0,75,0.00,,SKC,0.00,301.00,VWS V14.01,2013-06-21 12:31:00,
2013-06-21 08:34:00,67.2,57.9,30.28,ENE,61,1.0,2.0,72,0.00,,SKC,0.00,311.00,VWS V14.01,2013-06-21 12:34:00,
2013-06-21 08:36:00,67.4,57.7,30.28,ENE,65,2.0,2.0,71,0.00,,SKC,0.00,325.00,VWS V14.01,2013-06-21 12:36:00,
2013-06-21 08:39:00,67.6,57.9,30.28,ENE,65,0.0,2.0,71,0.00,,SKC,0.00,336.00,VWS V14.01,2013-06-21 12:39:00,
2013-06-21 08:40:00,67.8,58.8,30.28,ENE,67,1.0,2.0,73,0.00,,SKC,0.00,338.00,VWS V14.01,2013-06-21 12:40:00,
2013-06-21 08:41:00,67.9,57.8,30.28,ENE,67,0.0,2.0,70,0.00,,SKC,0.00,341.00,VWS V14.01,2013-06-21 12:41:00,
2013-06-21 08:42:00,67.9,57.8,30.28,ENE,67,0.0,2.0,70,0.00,,SKC,0.00,345.00,VWS V14.01,2013-06-21 12:42:00,
2013-06-21 08:44:00,68.1,58.7,30.28,ENE,67,0.0,2.0,72,0.00,,SKC,0.00,350.00,VWS V14.01,2013-06-21 12:44:00,
2013-06-21 08:45:00,68.3,58.5,30.28,ENE,67,0.0,2.0,71,0.00,,SKC,0.00,355.00,VWS V14.01,2013-06-21 12:45:00,
2013-06-21 08:46:00,68.3,58.5,30.28,ENE,67,0.0,2.0,71,0.00,,SKC,0.00,360.00,VWS V14.01,2013-06-21 12:46:00,
2013-06-21 08:47:00,68.3,58.5,30.28,ENE,67,0.0,2.0,71,0.00,,SKC,0.00,360.00,VWS V14.01,2013-06-21 12:47:00,
2013-06-21 08:49:00,68.5,59.1,30.28,ENE,67,0.0,2.0,72,0.00,,SKC,0.00,369.00,VWS V14.01,2013-06-21 12:49:00,
2013-06-21 08:51:00,68.7,59.3,30.28,ENE,67,0.0,2.0,72,0.00,,SKC,0.00,373.00,VWS V14.01,2013-06-21 12:51:00,
2013-06-21 08:52:00,68.8,59.4,30.28,ENE,67,0.0,2.0,72,0.00,,SKC,0.00,374.00,VWS V14.01,2013-06-21 12:52:00,
2013-06-21 08:54:00,68.9,57.9,30.28,ENE,67,0.0,2.0,68,0.00,,SKC,0.00,385.00,VWS V14.01,2013-06-21 12:54:00,
2013-06-21 08:56:00,69.0,58.0,30.28,ENE,67,0.0,2.0,68,0.00,,SKC,0.00,385.00,VWS V14.01,2013-06-21 12:56:00,
2013-06-21 08:57:00,69.1,58.5,30.28,ENE,67,0.0,2.0,69,0.00,,SKC,0.00,387.00,VWS V14.01,2013-06-21 12:57:00,
2013-06-21 08:59:00,69.3,58.7,30.28,ENE,67,0.0,2.0,69,0.00,,SKC,0.00,392.00,VWS V14.01,2013-06-21 12:59:00,
2013-06-21 09:01:00,69.5,59.3,30.28,ENE,67,0.0,0.0,70,0.00,,SKC,0.00,406.00,VWS V14.01,2013-06-21 13:01:00,
2013-06-21 09:02:00,69.7,59.5,30.28,ENE,67,1.0,1.0,70,0.00,,SKC,0.00,410.00,VWS V14.01,2013-06-21 13:02:00,
2013-06-21 09:03:00,69.8,59.6,30.28,ENE,67,0.0,1.0,70,0.00,,SKC,0.00,410.00,VWS V14.01,2013-06-21 13:03:00,
2013-06-21 09:04:00,70.1,60.7,30.28,ENE,67,0.0,1.0,72,0.00,,SKC,0.00,415.00,VWS V14.01,2013-06-21 13:04:00,
2013-06-21 09:06:00,70.5,60.3,30.28,ENE,67,0.0,1.0,70,0.00,,SKC,0.00,417.00,VWS V14.01,2013-06-21 13:06:00,
2013-06-21 09:07:00,70.6,60.0,30.28,ENE,67,0.0,1.0,69,0.00,,SKC,0.00,425.00,VWS V14.01,2013-06-21 13:07:00,
2013-06-21 09:08:00,70.6,60.0,30.28,ENE,67,0.0,1.0,69,0.00,,SKC,0.00,427.00,VWS V14.01,2013-06-21 13:08:00,
2013-06-21 09:10:00,70.7,58.8,30.28,ENE,67,1.0,2.0,66,0.00,,SKC,0.00,431.00,VWS V14.01,2013-06-21 13:10:00,
2013-06-21 09:11:00,70.8,58.0,30.28,ENE,67,1.0,2.0,64,0.00,,SKC,0.00,438.00,VWS V14.01,2013-06-21 13:11:00,
2013-06-21 09:12:00,70.8,58.0,30.28,ENE,67,0.0,2.0,64,0.00,,SKC,0.00,439.00,VWS V14.01,2013-06-21 13:12:00,
2013-06-21 09:13:00,70.8,58.0,30.28,ENE,67,0.0,2.0,64,0.00,,SKC,0.00,439.00,VWS V14.01,2013-06-21 13:13:00,
2013-06-21 09:15:00,71.1,58.3,30.28,ENE,67,0.0,2.0,64,0.00,,SKC,0.00,445.00,VWS V14.01,2013-06-21 13:15:00,
2013-06-21 09:17:00,71.5,58.3,30.28,ENE,67,0.0,2.0,63,0.00,,SKC,0.00,450.00,VWS V14.01,2013-06-21 13:17:00,
2013-06-21 09:18:00,71.6,58.3,30.28,ENE,67,0.0,2.0,63,0.00,,SKC,0.00,454.00,VWS V14.01,2013-06-21 13:18:00,
2013-06-21 09:20:00,71.2,58.4,30.28,ENE,67,0.0,2.0,64,0.00,,SKC,0.00,457.00,VWS V14.01,2013-06-21 13:20:00,
2013-06-21 09:22:00,70.5,57.8,30.28,ENE,67,0.0,2.0,64,0.00,,SKC,0.00,464.00,VWS V14.01,2013-06-21 13:22:00,
2013-06-21 09:23:00,70.5,57.8,30.28,ENE,67,0.0,2.0,64,0.00,,SKC,0.00,464.00,VWS V14.01,2013-06-21 13:23:00,
2013-06-21 09:25:00,70.6,58.7,30.28,ENE,67,0.0,2.0,66,0.00,,SKC,0.00,475.00,VWS V14.01,2013-06-21 13:25:00,
2013-06-21 09:27:00,70.4,58.1,30.28,ENE,67,1.0,2.0,65,0.00,,SKC,0.00,482.00,VWS V14.01,2013-06-21 13:27:00,
2013-06-21 09:28:00,70.3,58.0,30.28,ENE,67,1.0,2.0,65,0.00,,SKC,0.00,482.00,VWS V14.01,2013-06-21 13:28:00,
2013-06-21 09:30:00,70.3,57.6,30.28,ENE,67,1.0,2.0,64,0.00,,SKC,0.00,492.00,VWS V14.01,2013-06-21 13:30:00,
2013-06-21 09:33:00,70.4,57.2,30.28,ENE,67,1.0,1.0,63,0.00,,SKC,0.00,499.00,VWS V14.01,2013-06-21 13:33:00,
2013-06-21 09:34:00,70.5,57.3,30.28,ENE,67,0.0,1.0,63,0.00,,SKC,0.00,501.00,VWS V14.01,2013-06-21 13:34:00,
2013-06-21 09:35:00,70.7,57.1,30.28,ESE,111,0.0,3.0,62,0.00,,SKC,0.00,506.00,VWS V14.01,2013-06-21 13:35:00,
2013-06-21 09:38:00,70.6,56.1,30.27,ESE,122,1.0,3.0,60,0.00,,SKC,0.00,515.00,VWS V14.01,2013-06-21 13:38:00,
2013-06-21 09:39:00,70.6,56.5,30.27,ESE,122,1.0,3.0,61,0.00,,SKC,0.00,519.00,VWS V14.01,2013-06-21 13:39:00,
2013-06-21 09:41:00,70.8,57.2,30.27,ESE,122,0.0,3.0,62,0.00,,SKC,0.00,522.00,VWS V14.01,2013-06-21 13:41:00,
2013-06-21 09:43:00,70.8,55.8,30.27,ESE,122,1.0,3.0,59,0.00,,SKC,0.00,529.00,VWS V14.01,2013-06-21 13:43:00,
2013-06-21 09:44:00,70.9,55.9,30.27,ESE,122,1.0,3.0,59,0.00,,SKC,0.00,533.00,VWS V14.01,2013-06-21 13:44:00,
2013-06-21 09:46:00,71.1,56.1,30.27,ESE,122,1.0,3.0,59,0.00,,SKC,0.00,538.00,VWS V14.01,2013-06-21 13:46:00,
2013-06-21 09:48:00,71.1,55.6,30.27,ESE,122,1.0,3.0,58,0.00,,SKC,0.00,543.00,VWS V14.01,2013-06-21 13:48:00,
2013-06-21 09:49:00,71.1,56.1,30.27,ESE,122,0.0,3.0,59,0.00,,SKC,0.00,547.00,VWS V14.01,2013-06-21 13:49:00,
2013-06-21 09:51:00,71.1,56.1,30.27,ESE,122,0.0,3.0,59,0.00,,SKC,0.00,554.00,VWS V14.01,2013-06-21 13:51:00,
2013-06-21 09:54:00,71.3,55.8,30.27,ESE,122,1.0,3.0,58,0.00,,SKC,0.00,561.00,VWS V14.01,2013-06-21 13:54:00,
2013-06-21 09:56:00,71.2,56.2,30.27,ESE,122,0.0,3.0,59,0.00,,SKC,0.00,568.00,VWS V14.01,2013-06-21 13:56:00,
2013-06-21 09:59:00,71.8,57.6,30.27,ESE,122,1.0,3.0,61,0.00,,SKC,0.00,575.00,VWS V14.01,2013-06-21 13:59:00,
2013-06-21 10:00:00,72.2,58.9,30.27,ESE,122,0.0,3.0,63,0.00,,SKC,0.00,582.00,VWS V14.01,2013-06-21 14:00:00,
2013-06-21 10:01:00,72.2,57.6,30.27,ESE,122,0.0,1.0,60,0.00,,SKC,0.00,584.00,VWS V14.01,2013-06-21 14:01:00,
2013-06-21 10:02:00,72.2,57.6,30.27,ESE,122,0.0,1.0,60,0.00,,SKC,0.00,585.00,VWS V14.01,2013-06-21 14:02:00,
2013-06-21 10:04:00,71.9,57.7,30.27,ESE,122,2.0,2.0,61,0.00,,SKC,0.00,589.00,VWS V14.01,2013-06-21 14:04:00,
2013-06-21 10:06:00,71.3,58.1,30.27,SSE,162,0.0,3.0,63,0.00,,SKC,0.00,596.00,VWS V14.01,2013-06-21 14:06:00,
2013-06-21 10:09:00,71.3,59.4,30.27,SSE,162,0.0,3.0,66,0.00,,SKC,0.00,603.00,VWS V14.01,2013-06-21 14:09:00,
2013-06-21 10:12:00,71.5,58.3,30.27,SSE,161,0.0,3.0,63,0.00,,SKC,0.00,613.00,VWS V14.01,2013-06-21 14:12:00,
2013-06-21 10:14:00,71.5,58.7,30.27,SSE,162,1.0,3.0,64,0.00,,SKC,0.00,617.00,VWS V14.01,2013-06-21 14:14:00,
2013-06-21 10:15:00,71.3,58.5,30.27,SSE,162,0.0,3.0,64,0.00,,SKC,0.00,621.00,VWS V14.01,2013-06-21 14:15:00,
2013-06-21 10:17:00,71.1,58.8,30.27,SSE,163,2.0,3.0,65,0.00,,SKC,0.00,624.00,VWS V14.01,2013-06-21 14:17:00,
2013-06-21 10:19:00,70.7,58.8,30.27,SSE,165,2.0,3.0,66,0.00,,SKC,0.00,631.00,VWS V14.01,2013-06-21 14:19:00,
2013-06-21 10:20:00,70.7,58.8,30.27,SSE,165,1.0,3.0,66,0.00,,SKC,0.00,633.00,VWS V14.01,2013-06-21 14:20:00,
2013-06-21 10:21:00,70.7,59.6,30.27,SSE,156,2.0,4.0,68,0.00,,SKC,0.00,635.00,VWS V14.01,2013-06-21 14:21:00,
2013-06-21 10:22:00,70.8,59.3,30.27,ESE,121,2.0,4.0,67,0.00,,SKC,0.00,636.00,VWS V14.01,2013-06-21 14:22:00,
2013-06-21 10:24:00,71.1,58.8,30.27,ESE,123,1.0,4.0,65,0.00,,SKC,0.00,645.00,VWS V14.01,2013-06-21 14:24:00,
2013-06-21 10:25:00,71.2,58.8,30.27,ESE,123,1.0,4.0,65,0.00,,SKC,0.00,645.00,VWS V14.01,2013-06-21 14:25:00,
2013-06-21 10:26:00,71.3,59.8,30.27,ESE,123,0.0,4.0,67,0.00,,SKC,0.00,649.00,VWS V14.01,2013-06-21 14:26:00,
2013-06-21 10:27:00,71.8,61.1,30.27,ESE,123,0.0,4.0,69,0.00,,SKC,0.00,650.00,VWS V14.01,2013-06-21 14:27:00,
2013-06-21 10:29:00,72.1,60.1,30.27,SE,130,0.0,4.0,66,0.00,,SKC,0.00,657.00,VWS V14.01,2013-06-21 14:29:00,
2013-06-21 10:30:00,72.1,60.1,30.27,SE,130,0.0,4.0,66,0.00,,SKC,0.00,659.00,VWS V14.01,2013-06-21 14:30:00,
2013-06-21 10:31:00,72.3,61.2,30.27,SE,130,0.0,0.0,68,0.00,,SKC,0.00,663.00,VWS V14.01,2013-06-21 14:31:00,
2013-06-21 10:32:00,72.9,60.9,30.27,SE,130,2.0,2.0,66,0.00,,SKC,0.00,666.00,VWS V14.01,2013-06-21 14:32:00,
2013-06-21 10:35:00,73.9,60.5,30.27,SE,129,0.0,2.0,63,0.00,,SKC,0.00,673.00,VWS V14.01,2013-06-21 14:35:00,
2013-06-21 10:36:00,73.6,60.2,30.27,SE,125,0.0,2.0,63,0.00,,SKC,0.00,677.00,VWS V14.01,2013-06-21 14:36:00,
2013-06-21 10:37:00,73.7,60.3,30.27,SE,125,0.0,2.0,63,0.00,,SKC,0.00,677.00,VWS V14.01,2013-06-21 14:37:00,
2013-06-21 10:40:00,73.5,61.9,30.27,SE,126,1.0,3.0,67,0.00,,SKC,0.00,684.00,VWS V14.01,2013-06-21 14:40:00,
2013-06-21 10:41:00,73.6,62.4,30.27,SE,126,1.0,3.0,68,0.00,,SKC,0.00,687.00,VWS V14.01,2013-06-21 14:41:00,
2013-06-21 10:42:00,73.7,61.7,30.27,SE,126,0.0,3.0,66,0.00,,SKC,0.00,691.00,VWS V14.01,2013-06-21 14:42:00,
2013-06-21 10:45:00,73.9,61.8,30.27,SE,126,0.0,3.0,66,0.00,,SKC,0.00,696.00,VWS V14.01,2013-06-21 14:45:00,
2013-06-21 10:46:00,73.8,61.3,30.27,SE,126,0.0,3.0,65,0.00,,SKC,0.00,698.00,VWS V14.01,2013-06-21 14:46:00,
2013-06-21 10:48:00,73.6,62.0,30.27,SE,126,0.0,3.0,67,0.00,,SKC,0.00,701.00,VWS V14.01,2013-06-21 14:48:00,
2013-06-21 10:50:00,73.8,61.7,30.27,SE,127,0.0,3.0,66,0.00,,SKC,0.00,707.00,VWS V14.01,2013-06-21 14:50:00,
2013-06-21 10:51:00,73.8,62.2,30.27,SE,128,1.0,3.0,67,0.00,,SKC,0.00,712.00,VWS V14.01,2013-06-21 14:51:00,
2013-06-21 10:53:00,73.9,62.7,30.27,SE,131,0.0,4.0,68,0.00,,SKC,0.00,715.00,VWS V14.01,2013-06-21 14:53:00,
2013-06-21 10:55:00,73.9,62.7,30.27,SE,132,0.0,4.0,68,0.00,,SKC,0.00,721.00,VWS V14.01,2013-06-21 14:55:00,
2013-06-21 10:56:00,74.0,63.2,30.27,ESE,121,2.0,4.0,69,0.00,,SKC,0.00,721.00,VWS V14.01,2013-06-21 14:56:00,
2013-06-21 10:58:00,74.5,62.8,30.27,ESE,108,0.0,4.0,67,0.00,,SKC,0.00,726.00,VWS V14.01,2013-06-21 14:58:00,
2013-06-21 11:00:00,74.4,61.4,30.27,ESE,118,3.0,4.0,64,0.00,,SKC,0.00,731.00,VWS V14.01,2013-06-21 15:00:00,
2013-06-21 11:01:00,74.1,62.0,30.27,ESE,118,0.0,0.0,66,0.00,,SKC,0.00,733.00,VWS V14.01,2013-06-21 15:01:00,
2013-06-21 11:03:00,74.2,64.2,30.27,ESE,117,2.0,2.0,71,0.00,,SKC,0.00,740.00,VWS V14.01,2013-06-21 15:03:00,
2013-06-21 11:06:00,74.6,62.5,30.27,ESE,120,2.0,3.0,66,0.00,,SKC,0.00,744.00,VWS V14.01,2013-06-21 15:06:00,
2013-06-21 11:07:00,74.4,61.9,30.27,ESE,120,2.0,3.0,65,0.00,,SKC,0.00,749.00,VWS V14.01,2013-06-21 15:07:00,
2013-06-21 11:09:00,74.0,61.5,30.27,SE,143,0.0,4.0,65,0.00,,SKC,0.00,751.00,VWS V14.01,2013-06-21 15:09:00,
2013-06-21 11:11:00,74.0,62.4,30.27,SE,143,1.0,4.0,67,0.00,,SKC,0.00,756.00,VWS V14.01,2013-06-21 15:11:00,
2013-06-21 11:12:00,74.0,62.4,30.27,SE,143,3.0,4.0,67,0.00,,SKC,0.00,758.00,VWS V14.01,2013-06-21 15:12:00,
2013-06-21 11:13:00,74.1,62.9,30.27,SE,143,1.0,4.0,68,0.00,,SKC,0.00,761.00,VWS V14.01,2013-06-21 15:13:00,
2013-06-21 11:14:00,74.1,63.3,30.27,SE,143,0.0,4.0,69,0.00,,SKC,0.00,761.00,VWS V14.01,2013-06-21 15:14:00,
2013-06-21 11:16:00,74.7,63.5,30.27,SE,134,0.0,4.0,68,0.00,,SKC,0.00,766.00,VWS V14.01,2013-06-21 15:16:00,
2013-06-21 11:17:00,74.9,63.6,30.27,SE,134,1.0,4.0,68,0.00,,SKC,0.00,770.00,VWS V14.01,2013-06-21 15:17:00,
2013-06-21 11:19:00,75.3,63.2,30.27,ESE,102,1.0,4.0,66,0.00,,SKC,0.00,772.00,VWS V14.01,2013-06-21 15:19:00,
2013-06-21 11:22:00,75.9,65.0,30.26,North,10,0.0,4.0,69,0.00,,SKC,0.00,779.00,VWS V14.01,2013-06-21 15:22:00,
2013-06-21 11:24:00,76.0,63.4,30.26,SE,135,5.0,6.0,65,0.00,,SKC,0.00,784.00,VWS V14.01,2013-06-21 15:24:00,
2013-06-21 11:27:00,74.9,62.3,30.26,SE,127,3.0,7.0,65,0.00,,SKC,0.00,788.00,VWS V14.01,2013-06-21 15:27:00,
2013-06-21 11:29:00,74.7,63.9,30.26,SSE,156,0.0,7.0,69,0.00,,SKC,0.00,795.00,VWS V14.01,2013-06-21 15:29:00,
2013-06-21 11:32:00,74.9,62.8,30.26,ESE,102,2.0,3.0,66,0.00,,SKC,0.00,798.00,VWS V14.01,2013-06-21 15:32:00,
2013-06-21 11:34:00,75.1,63.0,30.27,ESE,109,0.0,3.0,66,0.00,,SKC,0.00,802.00,VWS V14.01,2013-06-21 15:34:00,
2013-06-21 11:37:00,74.8,63.5,30.27,SE,125,1.0,4.0,68,0.00,,SKC,0.00,807.00,VWS V14.01,2013-06-21 15:37:00,
2013-06-21 11:38:00,74.8,63.1,30.27,SE,132,1.0,4.0,67,0.00,,SKC,0.00,809.00,VWS V14.01,2013-06-21 15:38:00,
2013-06-21 11:40:00,74.5,62.8,30.26,SE,139,1.0,4.0,67,0.00,,SKC,0.00,814.00,VWS V14.01,2013-06-21 15:40:00,
2013-06-21 11:41:00,74.5,62.8,30.26,SE,139,0.0,4.0,67,0.00,,SKC,0.00,817.00,VWS V14.01,2013-06-21 15:41:00,
2013-06-21 11:42:00,74.5,62.8,30.26,SE,142,4.0,6.0,67,0.00,,SKC,0.00,819.00,VWS V14.01,2013-06-21 15:42:00,
2013-06-21 11:43:00,74.5,62.8,30.26,SE,138,2.0,6.0,67,0.00,,SKC,0.00,819.00,VWS V14.01,2013-06-21 15:43:00,
2013-06-21 11:45:00,74.3,63.5,30.27,SSW,197,3.0,6.0,69,0.00,,SKC,0.00,823.00,VWS V14.01,2013-06-21 15:45:00,
2013-06-21 11:46:00,74.3,64.3,30.27,SSW,197,0.0,6.0,71,0.00,,SKC,0.00,824.00,VWS V14.01,2013-06-21 15:46:00,
2013-06-21 11:48:00,74.4,64.0,30.27,SSW,202,0.0,6.0,70,0.00,,SKC,0.00,826.00,VWS V14.01,2013-06-21 15:48:00,
2013-06-21 11:50:00,74.7,63.9,30.27,SSW,198,0.0,6.0,69,0.00,,SKC,0.00,831.00,VWS V14.01,2013-06-21 15:50:00,
2013-06-21 11:51:00,74.7,63.9,30.26,SSW,197,1.0,6.0,69,0.00,,SKC,0.00,831.00,VWS V14.01,2013-06-21 15:51:00,
2013-06-21 11:53:00,74.6,63.8,30.26,SSW,197,3.0,6.0,69,0.00,,SKC,0.00,837.00,VWS V14.01,2013-06-21 15:53:00,
2013-06-21 11:56:00,74.4,62.7,30.26,SSW,209,3.0,6.0,67,0.00,,SKC,0.00,840.00,VWS V14.01,2013-06-21 15:56:00,
2013-06-21 11:57:00,74.2,62.5,30.26,SSW,209,0.0,6.0,67,0.00,,SKC,0.00,840.00,VWS V14.01,2013-06-21 15:57:00,
2013-06-21 11:58:00,74.2,63.8,30.26,ESE,115,2.0,6.0,70,0.00,,SKC,0.00,846.00,VWS V14.01,2013-06-21 15:58:00,
2013-06-21 11:59:00,74.4,64.0,30.26,SW,225,2.0,6.0,70,0.00,,SKC,0.00,846.00,VWS V14.01,2013-06-21 15:59:00,
2013-06-21 12:01:00,75.2,64.3,30.26,SSE,160,1.0,6.0,69,0.00,,SKC,0.00,847.00,VWS V14.01,2013-06-21 16:01:00,
2013-06-21 12:02:00,75.6,63.0,30.27,SSE,153,0.0,2.0,65,0.00,,SKC,0.00,851.00,VWS V14.01,2013-06-21 16:02:00,
2013-06-21 12:04:00,75.6,63.5,30.27,SSE,153,0.0,2.0,66,0.00,,SKC,0.00,854.00,VWS V14.01,2013-06-21 16:04:00,
2013-06-21 12:06:00,75.4,63.7,30.26,SE,141,0.0,6.0,67,0.00,,SKC,0.00,856.00,VWS V14.01,2013-06-21 16:06:00,
2013-06-21 12:09:00,75.4,63.3,30.26,SE,142,0.0,6.0,66,0.00,,SKC,0.00,858.00,VWS V14.01,2013-06-21 16:09:00,
2013-06-21 12:10:00,75.5,64.6,30.26,ESE,113,2.0,6.0,69,0.00,,SKC,0.00,860.00,VWS V14.01,2013-06-21 16:10:00,
2013-06-21 12:11:00,76.1,65.6,30.26,SE,142,2.0,6.0,70,0.00,,SKC,0.00,863.00,VWS V14.01,2013-06-21 16:11:00,
2013-06-21 12:14:00,76.4,65.1,30.26,SE,138,0.0,6.0,68,0.00,,SKC,0.00,865.00,VWS V14.01,2013-06-21 16:14:00,
2013-06-21 12:15:00,76.5,64.3,30.26,SE,127,4.0,8.0,66,0.00,,SKC,0.00,867.00,VWS V14.01,2013-06-21 16:15:00,
2013-06-21 12:17:00,75.9,63.3,30.26,SE,128,1.0,8.0,65,0.00,,SKC,0.00,870.00,VWS V14.01,2013-06-21 16:17:00,
2013-06-21 12:19:00,76.1,63.9,30.26,East,95,1.0,8.0,66,0.00,,SKC,0.00,874.00,VWS V14.01,2013-06-21 16:19:00,
2013-06-21 12:21:00,77.1,65.3,30.26,South,190,2.0,8.0,67,0.00,,SKC,0.00,877.00,VWS V14.01,2013-06-21 16:21:00,
2013-06-21 12:23:00,77.0,64.8,30.26,South,191,4.0,9.0,66,0.00,,SKC,0.00,881.00,VWS V14.01,2013-06-21 16:23:00,
2013-06-21 12:24:00,76.6,63.5,30.26,SE,127,5.0,9.0,64,0.00,,SKC,0.00,881.00,VWS V14.01,2013-06-21 16:24:00,
2013-06-21 12:25:00,76.1,63.5,30.26,SE,135,2.0,9.0,65,0.00,,SKC,0.00,882.00,VWS V14.01,2013-06-21 16:25:00,
2013-06-21 12:26:00,75.8,63.6,30.26,SE,145,4.0,9.0,66,0.00,,SKC,0.00,881.00,VWS V14.01,2013-06-21 16:26:00,
2013-06-21 12:28:00,75.6,64.7,30.26,SSE,153,2.0,9.0,69,0.00,,SKC,0.00,881.00,VWS V14.01,2013-06-21 16:28:00,
2013-06-21 12:29:00,75.7,64.8,30.26,SSE,148,1.0,9.0,69,0.00,,SKC,0.00,881.00,VWS V14.01,2013-06-21 16:29:00,
2013-06-21 12:30:00,75.8,64.5,30.26,SE,136,4.0,9.0,68,0.00,,SKC,0.00,882.00,VWS V14.01,2013-06-21 16:30:00,
2013-06-21 12:32:00,75.8,64.5,30.26,SSE,148,5.0,5.0,68,0.00,,SKC,0.00,886.00,VWS V14.01,2013-06-21 16:32:00,
2013-06-21 12:34:00,76.0,64.3,30.26,SE,145,2.0,5.0,67,0.00,,SKC,0.00,889.00,VWS V14.01,2013-06-21 16:34:00,
2013-06-21 12:35:00,75.9,65.0,30.26,SE,142,5.0,5.0,69,0.00,,SKC,0.00,889.00,VWS V14.01,2013-06-21 16:35:00,
2013-06-21 12:36:00,76.0,65.1,30.26,SE,139,4.0,5.0,69,0.00,,SKC,0.00,893.00,VWS V14.01,2013-06-21 16:36:00,
2013-06-21 12:39:00,76.1,64.4,30.26,SE,135,2.0,5.0,67,0.00,,SKC,0.00,893.00,VWS V14.01,2013-06-21 16:39:00,
2013-06-21 12:40:00,76.3,65.0,30.26,East,94,3.0,6.0,68,0.00,,SKC,0.00,895.00,VWS V14.01,2013-06-21 16:40:00,
2013-06-21 12:42:00,76.4,63.8,30.26,SE,139,1.0,6.0,65,0.00,,SKC,0.00,896.00,VWS V14.01,2013-06-21 16:42:00,
2013-06-21 12:45:00,76.6,65.7,30.26,SW,221,0.0,6.0,69,0.00,,SKC,0.00,902.00,VWS V14.01,2013-06-21 16:45:00,
2013-06-21 12:47:00,78.0,66.2,30.26,ESE,115,0.0,6.0,67,0.00,,SKC,0.00,900.00,VWS V14.01,2013-06-21 16:47:00,
2013-06-21 12:50:00,79.1,65.0,30.26,ENE,59,3.0,6.0,62,0.00,,SKC,0.00,904.00,VWS V14.01,2013-06-21 16:50:00,
2013-06-21 12:52:00,79.4,63.8,30.26,ENE,59,0.0,6.0,59,0.00,,SKC,0.00,904.00,VWS V14.01,2013-06-21 16:52:00,
2013-06-21 12:55:00,79.0,64.4,30.26,North,5,0.0,6.0,61,0.00,,SKC,0.00,909.00,VWS V14.01,2013-06-21 16:55:00,
2013-06-21 12:56:00,79.1,64.5,30.26,North,5,0.0,6.0,61,0.00,,SKC,0.00,909.00,VWS V14.01,2013-06-21 16:56:00,
2013-06-21 12:57:00,79.0,66.2,30.26,ESE,112,0.0,6.0,65,0.00,,SKC,0.00,911.00,VWS V14.01,2013-06-21 16:57:00,
2013-06-21 13:01:00,78.2,65.0,30.26,East,80,2.0,6.0,64,0.00,,SKC,0.00,911.00,VWS V14.01,2013-06-21 17:01:00,
2013-06-21 13:03:00,77.8,64.7,30.26,ESE,108,1.0,3.0,64,0.00,,SKC,0.00,911.00,VWS V14.01,2013-06-21 17:03:00,
2013-06-21 13:04:00,77.8,63.8,30.26,NE,40,1.0,4.0,62,0.00,,SKC,0.00,911.00,VWS V14.01,2013-06-21 17:04:00,
2013-06-21 13:06:00,78.4,66.6,30.26,NNE,28,0.0,4.0,67,0.00,,SKC,0.00,911.00,VWS V14.01,2013-06-21 17:06:00,
2013-06-21 13:10:00,79.6,65.9,30.26,East,90,1.0,5.0,63,0.00,,SKC,0.00,914.00,VWS V14.01,2013-06-21 17:10:00,
2013-06-21 13:11:00,79.8,66.1,30.26,East,91,2.0,5.0,63,0.00,,SKC,0.00,914.00,VWS V14.01,2013-06-21 17:11:00,
2013-06-21 13:16:00,78.9,65.2,30.26,ESE,106,0.0,5.0,63,0.00,,SKC,0.00,914.00,VWS V14.01,2013-06-21 17:16:00,
2013-06-21 13:17:00,78.7,66.4,30.26,SSW,200,3.0,5.0,66,0.00,,SKC,0.00,916.00,VWS V14.01,2013-06-21 17:17:00,
2013-06-21 13:18:00,78.2,65.5,30.26,SW,216,1.0,5.0,65,0.00,,SKC,0.00,919.00,VWS V14.01,2013-06-21 17:18:00,
2013-06-21 13:21:00,77.7,65.9,30.26,SW,216,0.0,5.0,67,0.00,,SKC,0.00,921.00,VWS V14.01,2013-06-21 17:21:00,
2013-06-21 13:22:00,77.8,66.0,30.26,SSW,205,1.0,5.0,67,0.00,,SKC,0.00,921.00,VWS V14.01,2013-06-21 17:22:00,
2013-06-21 13:23:00,78.6,67.6,30.26,South,176,1.0,5.0,69,0.00,,SKC,0.00,919.00,VWS V14.01,2013-06-21 17:23:00,
2013-06-21 13:27:00,79.3,65.2,30.26,SE,130,2.0,5.0,62,0.00,,SKC,0.00,919.00,VWS V14.01,2013-06-21 17:27:00,
2013-06-21 13:28:00,79.4,66.6,30.26,SE,130,1.0,5.0,65,0.00,,SKC,0.00,919.00,VWS V14.01,2013-06-21 17:28:00,
2013-06-21 13:29:00,79.4,66.6,30.26,SE,132,0.0,5.0,65,0.00,,SKC,0.00,919.00,VWS V14.01,2013-06-21 17:29:00,
2013-06-21 13:33:00,78.4,65.2,30.26,South,169,1.0,4.0,64,0.00,,SKC,0.00,919.00,VWS V14.01,2013-06-21 17:33:00,
2013-06-21 13:34:00,78.3,66.9,30.26,South,179,3.0,4.0,68,0.00,,SKC,0.00,921.00,VWS V14.01,2013-06-21 17:34:00,
2013-06-21 13:35:00,78.2,65.9,30.26,South,186,0.0,4.0,66,0.00,,SKC,0.00,921.00,VWS V14.01,2013-06-21 17:35:00,
2013-06-21 13:36:00,78.1,65.4,30.26,SSE,164,5.0,5.0,65,0.00,,SKC,0.00,921.00,VWS V14.01,2013-06-21 17:36:00,
2013-06-21 13:37:00,78.0,64.4,30.26,SE,146,4.0,5.0,63,0.00,,SKC,0.00,921.00,VWS V14.01,2013-06-21 17:37:00,
2013-06-21 13:38:00,77.9,65.2,30.26,SE,134,6.0,7.0,65,0.00,,SKC,0.00,923.00,VWS V14.01,2013-06-21 17:38:00,
2013-06-21 13:42:00,77.6,64.5,30.26,SE,126,4.0,8.0,64,0.00,,SKC,0.00,923.00,VWS V14.01,2013-06-21 17:42:00,
2013-06-21 13:43:00,77.6,65.3,30.26,SE,135,4.0,8.0,66,0.00,,SKC,0.00,919.00,VWS V14.01,2013-06-21 17:43:00,
2013-06-21 13:44:00,77.5,65.3,30.26,SE,141,2.0,8.0,66,0.00,,SKC,0.00,919.00,VWS V14.01,2013-06-21 17:44:00,
2013-06-21 13:46:00,77.5,64.4,30.26,SSE,167,2.0,8.0,64,0.00,,SKC,0.00,921.00,VWS V14.01,2013-06-21 17:46:00,
2013-06-21 13:47:00,78.0,66.6,30.25,South,186,1.0,8.0,68,0.00,,SKC,0.00,918.00,VWS V14.01,2013-06-21 17:47:00,
2013-06-21 13:51:00,78.3,65.6,30.25,SE,136,7.0,8.0,65,0.00,,SKC,0.00,918.00,VWS V14.01,2013-06-21 17:51:00,
2013-06-21 13:52:00,78.2,65.5,30.25,South,171,1.0,8.0,65,0.00,,SKC,0.00,923.00,VWS V14.01,2013-06-21 17:52:00,
2013-06-21 13:56:00,77.9,65.6,30.25,SE,133,1.0,8.0,66,0.00,,SKC,0.00,916.00,VWS V14.01,2013-06-21 17:56:00,
2013-06-21 13:57:00,78.0,65.7,30.25,ESE,105,1.0,8.0,66,0.00,,SKC,0.00,916.00,VWS V14.01,2013-06-21 17:57:00,
2013-06-21 14:01:00,77.9,65.6,30.25,SSW,209,2.0,4.0,66,0.00,,SKC,0.00,919.00,VWS V14.01,2013-06-21 18:01:00,
2013-06-21 14:02:00,78.0,65.7,30.25,SSW,206,0.0,4.0,66,0.00,,SKC,0.00,919.00,VWS V14.01,2013-06-21 18:02:00,
2013-06-21 14:03:00,78.0,65.3,30.25,SE,132,2.0,4.0,65,0.00,,SKC,0.00,918.00,VWS V14.01,2013-06-21 18:03:00,
2013-06-21 14:07:00,80.2,66.0,30.25,NE,49,0.0,4.0,62,0.00,,SKC,0.00,912.00,VWS V14.01,2013-06-21 18:07:00,
2013-06-21 14:08:00,80.7,66.0,30.25,NE,36,1.0,4.0,61,0.00,,SKC,0.00,912.00,VWS V14.01,2013-06-21 18:08:00,
2013-06-21 14:09:00,81.0,66.3,30.25,NE,37,0.0,4.0,61,0.00,,SKC,0.00,914.00,VWS V14.01,2013-06-21 18:09:00,
2013-06-21 14:12:00,81.6,65.9,30.25,ENE,69,0.0,5.0,59,0.00,,SKC,0.00,911.00,VWS V14.01,2013-06-21 18:12:00,
2013-06-21 14:14:00,81.5,67.2,30.25,ENE,70,0.0,5.0,62,0.00,,SKC,0.00,912.00,VWS V14.01,2013-06-21 18:14:00,
2013-06-21 14:17:00,80.7,64.1,30.24,SW,223,6.0,6.0,57,0.00,,SKC,0.00,912.00,VWS V14.01,2013-06-21 18:17:00,
2013-06-21 14:18:00,80.5,65.3,30.24,ESE,111,3.0,6.0,60,0.00,,SKC,0.00,912.00,VWS V14.01,2013-06-21 18:18:00,
2013-06-21 14:19:00,80.3,66.6,30.24,SE,135,1.0,6.0,63,0.00,,SKC,0.00,911.00,VWS V14.01,2013-06-21 18:19:00,
2013-06-21 14:22:00,80.4,66.7,30.24,SE,126,3.0,6.0,63,0.00,,SKC,0.00,907.00,VWS V14.01,2013-06-21 18:22:00,
2013-06-21 14:23:00,80.4,66.7,30.24,SE,142,3.0,6.0,63,0.00,,SKC,0.00,905.00,VWS V14.01,2013-06-21 18:23:00,
2013-06-21 14:28:00,80.1,67.7,30.25,SE,138,5.0,6.0,66,0.00,,SKC,0.00,898.00,VWS V14.01,2013-06-21 18:28:00,
2013-06-21 14:29:00,80.2,66.9,30.25,SE,134,2.0,6.0,64,0.00,,SKC,0.00,898.00,VWS V14.01,2013-06-21 18:29:00,
2013-06-21 14:33:00,82.3,68.0,30.24,ENE,65,2.0,3.0,62,0.00,,SKC,0.00,900.00,VWS V14.01,2013-06-21 18:33:00,
2013-06-21 14:34:00,82.4,66.7,30.24,ENE,69,5.0,5.0,59,0.00,,SKC,0.00,900.00,VWS V14.01,2013-06-21 18:34:00,
2013-06-21 14:35:00,82.5,66.7,30.24,East,94,0.0,5.0,59,0.00,,SKC,0.00,898.00,VWS V14.01,2013-06-21 18:35:00,
2013-06-21 14:38:00,82.0,66.8,30.24,ESE,103,1.0,5.0,60,0.00,,SKC,0.00,896.00,VWS V14.01,2013-06-21 18:38:00,
2013-06-21 14:39:00,82.0,66.8,30.24,East,101,1.0,5.0,60,0.00,,SKC,0.00,896.00,VWS V14.01,2013-06-21 18:39:00,
2013-06-21 14:40:00,82.1,65.4,30.24,East,101,2.0,6.0,57,0.00,,SKC,0.00,896.00,VWS V14.01,2013-06-21 18:40:00,
2013-06-21 14:44:00,82.0,65.8,30.24,SE,140,0.0,6.0,58,0.00,,SKC,0.00,889.00,VWS V14.01,2013-06-21 18:44:00,
2013-06-21 14:45:00,81.8,67.5,30.24,ENE,78,3.0,6.0,62,0.00,,SKC,0.00,889.00,VWS V14.01,2013-06-21 18:45:00,
2013-06-21 14:46:00,81.6,65.9,30.24,SSE,160,3.0,6.0,59,0.00,,SKC,0.00,889.00,VWS V14.01,2013-06-21 18:46:00,
2013-06-21 14:50:00,79.6,65.0,30.24,SSE,154,1.0,6.0,61,0.00,,SKC,0.00,879.00,VWS V14.01,2013-06-21 18:50:00,
2013-06-21 14:51:00,79.5,64.9,30.24,SSE,159,0.0,6.0,61,0.00,,SKC,0.00,875.00,VWS V14.01,2013-06-21 18:51:00,
2013-06-21 14:55:00,80.5,66.8,30.24,South,170,1.0,6.0,63,0.00,,SKC,0.00,875.00,VWS V14.01,2013-06-21 18:55:00,
2013-06-21 14:56:00,80.5,66.8,30.24,SSE,164,1.0,6.0,63,0.00,,SKC,0.00,875.00,VWS V14.01,2013-06-21 18:56:00,
2013-06-21 14:57:00,80.3,65.6,30.24,SSW,202,3.0,6.0,61,0.00,,SKC,0.00,874.00,VWS V14.01,2013-06-21 18:57:00,
2013-06-21 15:01:00,79.4,64.8,30.24,SSW,206,4.0,6.0,61,0.00,,SKC,0.00,867.00,VWS V14.01,2013-06-21 19:01:00,
2013-06-21 15:02:00,79.3,64.7,30.24,SE,135,5.0,6.0,61,0.00,,SKC,0.00,865.00,VWS V14.01,2013-06-21 19:02:00,
2013-06-21 15:06:00,79.4,66.6,30.24,East,98,6.0,6.0,65,0.00,,SKC,0.00,856.00,VWS V14.01,2013-06-21 19:06:00,
2013-06-21 15:07:00,79.5,66.7,30.24,ESE,123,4.0,6.0,65,0.00,,SKC,0.00,854.00,VWS V14.01,2013-06-21 19:07:00,
2013-06-21 15:12:00,81.4,67.1,30.24,SE,126,0.0,6.0,62,0.00,,SKC,0.00,849.00,VWS V14.01,2013-06-21 19:12:00,
2013-06-21 15:15:00,81.6,66.9,30.23,SSE,148,3.0,9.0,61,0.00,,SKC,0.00,831.00,VWS V14.01,2013-06-21 19:15:00,
2013-06-21 15:17:00,80.8,65.6,30.23,SE,140,3.0,9.0,60,0.00,,SKC,0.00,863.00,VWS V14.01,2013-06-21 19:17:00,
2013-06-21 15:18:00,80.7,66.9,30.23,SE,134,1.0,9.0,63,0.00,,SKC,0.00,863.00,VWS V14.01,2013-06-21 19:18:00,
2013-06-21 15:20:00,80.2,66.0,30.23,SSE,161,0.0,9.0,62,0.00,,SKC,0.00,160.00,VWS V14.01,2013-06-21 19:20:00,
2013-06-21 15:22:00,80.2,67.4,30.23,NNE,26,0.0,9.0,65,0.00,,SKC,0.00,193.00,VWS V14.01,2013-06-21 19:22:00,
2013-06-21 15:23:00,80.2,67.4,30.23,NNE,26,0.0,9.0,65,0.00,,SKC,0.00,833.00,VWS V14.01,2013-06-21 19:23:00,
2013-06-21 15:25:00,80.6,66.8,30.23,NNE,23,1.0,9.0,63,0.00,,SKC,0.00,831.00,VWS V14.01,2013-06-21 19:25:00,
2013-06-21 15:28:00,80.7,67.8,30.23,South,171,2.0,9.0,65,0.00,,SKC,0.00,814.00,VWS V14.01,2013-06-21 19:28:00,
2013-06-21 15:30:00,80.6,66.4,30.23,SSW,207,2.0,9.0,62,0.00,,SKC,0.00,807.00,VWS V14.01,2013-06-21 19:30:00,
2013-06-21 15:33:00,80.2,66.0,30.23,SE,140,4.0,5.0,62,0.00,,SKC,0.00,814.00,VWS V14.01,2013-06-21 19:33:00,
2013-06-21 15:35:00,80.2,66.0,30.23,ESE,105,1.0,5.0,62,0.00,,SKC,0.00,810.00,VWS V14.01,2013-06-21 19:35:00,
2013-06-21 15:38:00,81.4,67.1,30.23,NE,45,0.0,5.0,62,0.00,,SKC,0.00,809.00,VWS V14.01,2013-06-21 19:38:00,
2013-06-21 15:40:00,82.1,66.8,30.23,East,92,2.0,5.0,60,0.00,,SKC,0.00,802.00,VWS V14.01,2013-06-21 19:40:00,
2013-06-21 15:41:00,82.1,66.8,30.23,East,92,2.0,5.0,60,0.00,,SKC,0.00,802.00,VWS V14.01,2013-06-21 19:41:00,
2013-06-21 15:43:00,81.4,66.2,30.23,ESE,108,0.0,5.0,60,0.00,,SKC,0.00,795.00,VWS V14.01,2013-06-21 19:43:00,
2013-06-21 15:45:00,81.0,65.8,30.23,ESE,118,2.0,6.0,60,0.00,,SKC,0.00,789.00,VWS V14.01,2013-06-21 19:45:00,
2013-06-21 15:47:00,80.7,66.5,30.23,SE,129,4.0,7.0,62,0.00,,SKC,0.00,780.00,VWS V14.01,2013-06-21 19:47:00,
2013-06-21 15:48:00,80.4,65.7,30.23,SSE,156,3.0,7.0,61,0.00,,SKC,0.00,779.00,VWS V14.01,2013-06-21 19:48:00,
2013-06-21 15:49:00,80.2,65.5,30.23,SSE,147,3.0,7.0,61,0.00,,SKC,0.00,779.00,VWS V14.01,2013-06-21 19:49:00,
2013-06-21 15:51:00,79.6,65.0,30.23,SW,232,1.0,7.0,61,0.00,,SKC,0.00,780.00,VWS V14.01,2013-06-21 19:51:00,
2013-06-21 15:52:00,79.4,64.8,30.23,SW,230,3.0,7.0,61,0.00,,SKC,0.00,779.00,VWS V14.01,2013-06-21 19:52:00,
2013-06-21 15:53:00,79.2,65.1,30.23,SW,223,2.0,7.0,62,0.00,,SKC,0.00,780.00,VWS V14.01,2013-06-21 19:53:00,
2013-06-21 15:54:00,79.2,66.4,30.23,SW,220,2.0,7.0,65,0.00,,SKC,0.00,780.00,VWS V14.01,2013-06-21 19:54:00,
2013-06-21 15:56:00,79.2,65.1,30.22,SSE,148,1.0,7.0,62,0.00,,SKC,0.00,773.00,VWS V14.01,2013-06-21 19:56:00,
2013-06-21 15:57:00,79.2,65.5,30.23,South,184,2.0,7.0,63,0.00,,SKC,0.00,773.00,VWS V14.01,2013-06-21 19:57:00,
2013-06-21 15:59:00,79.5,67.6,30.23,SSE,147,3.0,7.0,67,0.00,,SKC,0.00,779.00,VWS V14.01,2013-06-21 19:59:00,
2013-06-21 16:02:00,79.8,65.6,30.22,SSE,148,1.0,6.0,62,0.00,,SKC,0.00,775.00,VWS V14.01,2013-06-21 20:02:00,
2013-06-21 16:04:00,79.7,65.1,30.22,SE,134,0.0,6.0,61,0.00,,SKC,0.00,766.00,VWS V14.01,2013-06-21 20:04:00,
2013-06-21 16:07:00,80.5,67.2,30.22,SE,124,3.0,6.0,64,0.00,,SKC,0.00,751.00,VWS V14.01,2013-06-21 20:07:00,
2013-06-21 16:08:00,80.5,64.9,30.22,SE,124,0.0,6.0,59,0.00,,SKC,0.00,751.00,VWS V14.01,2013-06-21 20:08:00,
2013-06-21 16:09:00,80.7,65.5,30.22,SE,124,0.0,6.0,60,0.00,,SKC,0.00,745.00,VWS V14.01,2013-06-21 20:09:00,
2013-06-21 16:11:00,81.1,66.9,30.22,SE,141,0.0,6.0,62,0.00,,SKC,0.00,742.00,VWS V14.01,2013-06-21 20:11:00,
2013-06-21 16:12:00,81.1,67.8,30.22,SE,145,0.0,6.0,64,0.00,,SKC,0.00,740.00,VWS V14.01,2013-06-21 20:12:00,
2013-06-21 16:13:00,81.1,67.3,30.22,SW,223,2.0,6.0,63,0.00,,SKC,0.00,740.00,VWS V14.01,2013-06-21 20:13:00,
2013-06-21 16:14:00,80.8,66.6,30.22,SE,129,3.0,6.0,62,0.00,,SKC,0.00,733.00,VWS V14.01,2013-06-21 20:14:00,
2013-06-21 16:16:00,80.5,65.8,30.22,SE,132,1.0,6.0,61,0.00,,SKC,0.00,728.00,VWS V14.01,2013-06-21 20:16:00,
2013-06-21 16:17:00,80.4,67.6,30.22,SSW,204,0.0,6.0,65,0.00,,SKC,0.00,726.00,VWS V14.01,2013-06-21 20:17:00,
2013-06-21 16:18:00,80.7,67.4,30.22,SE,137,2.0,6.0,64,0.00,,SKC,0.00,722.00,VWS V14.01,2013-06-21 20:18:00,
2013-06-21 16:19:00,80.8,67.5,30.22,SE,137,1.0,6.0,64,0.00,,SKC,0.00,722.00,VWS V14.01,2013-06-21 20:19:00,
2013-06-21 16:21:00,81.6,69.2,30.22,ESE,119,1.0,6.0,66,0.00,,SKC,0.00,715.00,VWS V14.01,2013-06-21 20:21:00,
2013-06-21 16:22:00,82.3,67.0,30.22,ESE,111,0.0,6.0,60,0.00,,SKC,0.00,715.00,VWS V14.01,2013-06-21 20:22:00,
2013-06-21 16:24:00,82.6,67.8,30.22,East,86,1.0,6.0,61,0.00,,SKC,0.00,703.00,VWS V14.01,2013-06-21 20:24:00,
2013-06-21 16:25:00,82.4,65.7,30.22,SE,133,1.0,6.0,57,0.00,,SKC,0.00,701.00,VWS V14.01,2013-06-21 20:25:00,
2013-06-21 16:26:00,81.9,65.7,30.22,SE,142,2.0,6.0,58,0.00,,SKC,0.00,700.00,VWS V14.01,2013-06-21 20:26:00,
2013-06-21 16:28:00,81.5,65.8,30.22,SE,144,1.0,6.0,59,0.00,,SKC,0.00,696.00,VWS V14.01,2013-06-21 20:28:00,
2013-06-21 16:29:00,81.1,65.9,30.22,SE,143,0.0,6.0,60,0.00,,SKC,0.00,694.00,VWS V14.01,2013-06-21 20:29:00,
2013-06-21 16:30:00,81.0,66.8,30.22,SE,142,0.0,6.0,62,0.00,,SKC,0.00,694.00,VWS V14.01,2013-06-21 20:30:00,
2013-06-21 16:32:00,81.3,66.1,30.22,SSE,153,1.0,3.0,60,0.00,,SKC,0.00,693.00,VWS V14.01,2013-06-21 20:32:00,
2013-06-21 16:33:00,81.3,66.1,30.22,SE,128,5.0,6.0,60,0.00,,SKC,0.00,689.00,VWS V14.01,2013-06-21 20:33:00,
2013-06-21 16:34:00,81.0,65.8,30.22,SE,130,2.0,6.0,60,0.00,,SKC,0.00,686.00,VWS V14.01,2013-06-21 20:34:00,
2013-06-21 16:35:00,80.8,66.1,30.22,East,84,6.0,6.0,61,0.00,,SKC,0.00,661.00,VWS V14.01,2013-06-21 20:35:00,
2013-06-21 16:37:00,80.7,65.1,30.22,East,90,2.0,8.0,59,0.00,,SKC,0.00,673.00,VWS V14.01,2013-06-21 20:37:00,
2013-06-21 16:38:00,80.9,66.7,30.21,ESE,115,1.0,8.0,62,0.00,,SKC,0.00,673.00,VWS V14.01,2013-06-21 20:38:00,
2013-06-21 16:39:00,81.0,66.3,30.21,SSE,150,3.0,8.0,61,0.00,,SKC,0.00,670.00,VWS V14.01,2013-06-21 20:39:00,
2013-06-21 16:41:00,80.8,66.1,30.22,ESE,115,2.0,8.0,61,0.00,,SKC,0.00,663.00,VWS V14.01,2013-06-21 20:41:00,
2013-06-21 16:44:00,81.0,65.8,30.21,ENE,61,1.0,8.0,60,0.00,,SKC,0.00,656.00,VWS V14.01,2013-06-21 20:44:00,
2013-06-21 16:45:00,81.3,67.1,30.21,SE,130,0.0,8.0,62,0.00,,SKC,0.00,657.00,VWS V14.01,2013-06-21 20:45:00,
2013-06-21 16:46:00,81.4,66.2,30.21,SE,134,1.0,8.0,60,0.00,,SKC,0.00,657.00,VWS V14.01,2013-06-21 20:46:00,
2013-06-21 16:49:00,80.7,65.1,30.21,SE,133,1.0,8.0,59,0.00,,SKC,0.00,647.00,VWS V14.01,2013-06-21 20:49:00,
2013-06-21 16:50:00,80.7,65.5,30.21,SE,133,1.0,8.0,60,0.00,,SKC,0.00,647.00,VWS V14.01,2013-06-21 20:50:00,
2013-06-21 16:51:00,80.8,66.1,30.21,ENE,63,1.0,8.0,61,0.00,,SKC,0.00,643.00,VWS V14.01,2013-06-21 20:51:00,
2013-06-21 16:54:00,81.4,65.7,30.21,East,88,2.0,8.0,59,0.00,,SKC,0.00,631.00,VWS V14.01,2013-06-21 20:54:00,
2013-06-21 16:55:00,81.4,66.2,30.21,East,91,0.0,8.0,60,0.00,,SKC,0.00,631.00,VWS V14.01,2013-06-21 20:55:00,
2013-06-21 16:56:00,81.4,66.2,30.21,ENE,76,1.0,8.0,60,0.00,,SKC,0.00,631.00,VWS V14.01,2013-06-21 20:56:00,
2013-06-21 16:57:00,81.4,66.2,30.21,ENE,76,1.0,8.0,60,0.00,,SKC,0.00,617.00,VWS V14.01,2013-06-21 20:57:00,
2013-06-21 16:59:00,81.8,65.6,30.21,East,79,0.0,8.0,58,0.00,,SKC,0.00,617.00,VWS V14.01,2013-06-21 20:59:00,
2013-06-21 17:00:00,81.8,66.1,30.21,SE,131,3.0,8.0,59,0.00,,SKC,0.00,615.00,VWS V14.01,2013-06-21 21:00:00,
2013-06-21 17:01:00,81.6,65.4,30.21,SE,136,0.0,2.0,58,0.00,,SKC,0.00,610.00,VWS V14.01,2013-06-21 21:01:00,
2013-06-21 17:02:00,81.4,65.7,30.21,SE,136,0.0,2.0,59,0.00,,SKC,0.00,606.00,VWS V14.01,2013-06-21 21:02:00,
2013-06-21 17:04:00,81.8,68.0,30.21,ESE,107,1.0,2.0,63,0.00,,SKC,0.00,601.00,VWS V14.01,2013-06-21 21:04:00,
2013-06-21 17:05:00,82.0,66.8,30.21,ESE,107,0.0,2.0,60,0.00,,SKC,0.00,598.00,VWS V14.01,2013-06-21 21:05:00,
2013-06-21 17:07:00,82.6,66.8,30.21,ESE,108,1.0,2.0,59,0.00,,SKC,0.00,592.00,VWS V14.01,2013-06-21 21:07:00,
2013-06-21 17:09:00,82.9,66.6,30.20,East,101,2.0,3.0,58,0.00,,SKC,0.00,585.00,VWS V14.01,2013-06-21 21:09:00,
2013-06-21 17:10:00,82.9,66.6,30.20,East,101,1.0,3.0,58,0.00,,SKC,0.00,580.00,VWS V14.01,2013-06-21 21:10:00,
2013-06-21 17:12:00,82.6,65.3,30.21,East,94,5.0,5.0,56,0.00,,SKC,0.00,578.00,VWS V14.01,2013-06-21 21:12:00,
2013-06-21 17:14:00,82.3,65.6,30.20,ENE,75,3.0,5.0,57,0.00,,SKC,0.00,575.00,VWS V14.01,2013-06-21 21:14:00,
2013-06-21 17:15:00,82.2,65.5,30.20,SE,140,2.0,5.0,57,0.00,,SKC,0.00,571.00,VWS V14.01,2013-06-21 21:15:00,
2013-06-21 17:16:00,82.1,65.4,30.20,ESE,107,0.0,5.0,57,0.00,,SKC,0.00,570.00,VWS V14.01,2013-06-21 21:16:00,
2013-06-21 17:17:00,81.8,66.1,30.20,ESE,109,1.0,5.0,59,0.00,,SKC,0.00,563.00,VWS V14.01,2013-06-21 21:17:00,
2013-06-21 17:19:00,81.5,65.3,30.20,East,84,1.0,6.0,58,0.00,,SKC,0.00,559.00,VWS V14.01,2013-06-21 21:19:00,
2013-06-21 17:20:00,81.3,64.6,30.20,ESE,106,0.0,6.0,57,0.00,,SKC,0.00,559.00,VWS V14.01,2013-06-21 21:20:00,
2013-06-21 17:21:00,81.3,64.6,30.20,ESE,102,1.0,6.0,57,0.00,,SKC,0.00,557.00,VWS V14.01,2013-06-21 21:21:00,
2013-06-21 17:23:00,81.1,64.4,30.20,SE,135,2.0,7.0,57,0.00,,SKC,0.00,554.00,VWS V14.01,2013-06-21 21:23:00,
2013-06-21 17:25:00,80.9,65.7,30.20,SSE,147,3.0,7.0,60,0.00,,SKC,0.00,547.00,VWS V14.01,2013-06-21 21:25:00,
2013-06-21 17:26:00,80.8,66.1,30.20,East,82,0.0,7.0,61,0.00,,SKC,0.00,543.00,VWS V14.01,2013-06-21 21:26:00,
2013-06-21 17:27:00,80.8,66.1,30.20,ESE,103,3.0,7.0,61,0.00,,SKC,0.00,540.00,VWS V14.01,2013-06-21 21:27:00,
2013-06-21 17:28:00,80.7,66.5,30.20,ESE,110,1.0,7.0,62,0.00,,SKC,0.00,538.00,VWS V14.01,2013-06-21 21:28:00,
2013-06-21 17:30:00,80.7,66.0,30.20,ENE,75,1.0,7.0,61,0.00,,SKC,0.00,534.00,VWS V14.01,2013-06-21 21:30:00,
2013-06-21 17:31:00,80.7,66.0,30.20,East,96,1.0,7.0,61,0.00,,SKC,0.00,534.00,VWS V14.01,2013-06-21 21:31:00,
2013-06-21 17:32:00,80.8,66.1,30.20,ESE,121,1.0,3.0,61,0.00,,SKC,0.00,534.00,VWS V14.01,2013-06-21 21:32:00,
2013-06-21 17:33:00,80.8,65.6,30.20,ESE,108,3.0,3.0,60,0.00,,SKC,0.00,534.00,VWS V14.01,2013-06-21 21:33:00,
2013-06-21 17:35:00,80.8,65.2,30.20,ESE,110,2.0,3.0,59,0.00,,SKC,0.00,534.00,VWS V14.01,2013-06-21 21:35:00,
2013-06-21 17:36:00,80.8,66.1,30.20,ESE,119,4.0,4.0,61,0.00,,SKC,0.00,534.00,VWS V14.01,2013-06-21 21:36:00,
2013-06-21 17:38:00,80.8,65.6,30.20,SE,126,0.0,4.0,60,0.00,,SKC,0.00,510.00,VWS V14.01,2013-06-21 21:38:00,
2013-06-21 17:40:00,81.0,66.3,30.20,SE,125,0.0,4.0,61,0.00,,SKC,0.00,475.00,VWS V14.01,2013-06-21 21:40:00,
2013-06-21 17:42:00,81.1,65.9,30.20,SE,125,2.0,4.0,60,0.00,,SKC,0.00,475.00,VWS V14.01,2013-06-21 21:42:00,
2013-06-21 17:43:00,81.2,66.0,30.20,SSW,210,2.0,4.0,60,0.00,,SKC,0.00,475.00,VWS V14.01,2013-06-21 21:43:00,
2013-06-21 17:44:00,81.2,66.0,30.20,SSE,155,2.0,4.0,60,0.00,,SKC,0.00,475.00,VWS V14.01,2013-06-21 21:44:00,
2013-06-21 17:45:00,81.0,65.8,30.20,SE,124,2.0,4.0,60,0.00,,SKC,0.00,475.00,VWS V14.01,2013-06-21 21:45:00,
2013-06-21 17:48:00,80.9,65.7,30.19,SE,146,5.0,6.0,60,0.00,,SKC,0.00,487.00,VWS V14.01,2013-06-21 21:48:00,
2013-06-21 17:49:00,80.9,65.7,30.19,SE,146,5.0,6.0,60,0.00,,SKC,0.00,487.00,VWS V14.01,2013-06-21 21:49:00,
2013-06-21 17:50:00,80.9,65.7,30.19,ESE,113,1.0,6.0,60,0.00,,SKC,0.00,487.00,VWS V14.01,2013-06-21 21:50:00,
2013-06-21 17:54:00,80.9,66.2,30.19,SE,145,0.0,6.0,61,0.00,,SKC,0.00,487.00,VWS V14.01,2013-06-21 21:54:00,
2013-06-21 17:55:00,80.9,65.7,30.19,SE,146,1.0,6.0,60,0.00,,SKC,0.00,455.00,VWS V14.01,2013-06-21 21:55:00,
2013-06-21 17:59:00,80.7,65.5,30.19,ESE,117,2.0,6.0,60,0.00,,SKC,0.00,441.00,VWS V14.01,2013-06-21 21:59:00,
2013-06-21 18:00:00,80.7,65.1,30.19,SE,130,0.0,6.0,59,0.00,,SKC,0.00,441.00,VWS V14.01,2013-06-21 22:00:00,
2013-06-21 18:04:00,80.9,65.7,30.19,East,88,5.0,6.0,60,0.00,,SKC,0.00,424.00,VWS V14.01,2013-06-21 22:04:00,
2013-06-21 18:05:00,80.9,65.2,30.19,East,83,1.0,6.0,59,0.00,,SKC,0.00,424.00,VWS V14.01,2013-06-21 22:05:00,
2013-06-21 18:06:00,80.9,65.2,30.19,ENE,76,0.0,6.0,59,0.00,,SKC,0.00,422.00,VWS V14.01,2013-06-21 22:06:00,
2013-06-21 18:10:00,80.8,65.6,30.19,ESE,105,3.0,6.0,60,0.00,,SKC,0.00,408.00,VWS V14.01,2013-06-21 22:10:00,
2013-06-21 18:11:00,80.9,66.2,30.19,ESE,109,2.0,6.0,61,0.00,,SKC,0.00,406.00,VWS V14.01,2013-06-21 22:11:00,
2013-06-21 18:15:00,80.8,64.7,30.19,ESE,123,1.0,6.0,58,0.00,,SKC,0.00,394.00,VWS V14.01,2013-06-21 22:15:00,
2013-06-21 18:16:00,80.9,65.2,30.19,SSE,151,2.0,6.0,59,0.00,,SKC,0.00,390.00,VWS V14.01,2013-06-21 22:16:00,
2013-06-21 18:17:00,80.8,64.7,30.19,SE,134,6.0,7.0,58,0.00,,SKC,0.00,388.00,VWS V14.01,2013-06-21 22:17:00,
2013-06-21 18:20:00,80.6,65.4,30.19,SE,140,2.0,7.0,60,0.00,,SKC,0.00,376.00,VWS V14.01,2013-06-21 22:20:00,
2013-06-21 18:21:00,80.6,65.0,30.19,SE,145,4.0,7.0,59,0.00,,SKC,0.00,373.00,VWS V14.01,2013-06-21 22:21:00,
2013-06-21 18:23:00,80.5,64.4,30.19,East,96,3.0,7.0,58,0.00,,SKC,0.00,362.00,VWS V14.01,2013-06-21 22:23:00,
2013-06-21 18:25:00,80.3,64.7,30.19,ENE,78,3.0,7.0,59,0.00,,SKC,0.00,359.00,VWS V14.01,2013-06-21 22:25:00,
2013-06-21 18:26:00,80.3,64.2,30.19,East,91,3.0,7.0,58,0.00,,SKC,0.00,355.00,VWS V14.01,2013-06-21 22:26:00,
2013-06-21 18:28:00,80.2,64.1,30.19,ENE,64,3.0,7.0,58,0.00,,SKC,0.00,350.00,VWS V14.01,2013-06-21 22:28:00,
2013-06-21 18:30:00,80.2,64.6,30.19,East,96,0.0,7.0,59,0.00,,SKC,0.00,343.00,VWS V14.01,2013-06-21 22:30:00,
2013-06-21 18:31:00,80.3,64.7,30.19,East,96,0.0,7.0,59,0.00,,SKC,0.00,341.00,VWS V14.01,2013-06-21 22:31:00,
2013-06-21 18:33:00,80.5,64.9,30.19,ESE,114,1.0,2.0,59,0.00,,SKC,0.00,334.00,VWS V14.01,2013-06-21 22:33:00,
2013-06-21 18:35:00,80.6,64.5,30.19,SE,128,2.0,4.0,58,0.00,,SKC,0.00,327.00,VWS V14.01,2013-06-21 22:35:00,
2013-06-21 18:36:00,80.6,64.5,30.19,SE,131,3.0,4.0,58,0.00,,SKC,0.00,325.00,VWS V14.01,2013-06-21 22:36:00,
2013-06-21 18:37:00,80.5,64.4,30.19,SE,145,4.0,7.0,58,0.00,,SKC,0.00,322.00,VWS V14.01,2013-06-21 22:37:00,
2013-06-21 18:38:00,80.5,63.9,30.19,SE,135,0.0,7.0,57,0.00,,SKC,0.00,318.00,VWS V14.01,2013-06-21 22:38:00,
2013-06-21 18:41:00,80.6,65.0,30.19,SE,135,0.0,7.0,59,0.00,,SKC,0.00,311.00,VWS V14.01,2013-06-21 22:41:00,
2013-06-21 18:42:00,80.6,65.0,30.19,SE,143,4.0,7.0,59,0.00,,SKC,0.00,308.00,VWS V14.01,2013-06-21 22:42:00,
2013-06-21 18:43:00,80.6,65.4,30.19,SE,143,0.0,7.0,60,0.00,,SKC,0.00,311.00,VWS V14.01,2013-06-21 22:43:00,
2013-06-21 18:46:00,80.4,65.3,30.19,SSE,148,7.0,9.0,60,0.00,,SKC,0.00,295.00,VWS V14.01,2013-06-21 22:46:00,
2013-06-21 18:47:00,80.3,64.7,30.19,SE,130,2.0,9.0,59,0.00,,SKC,0.00,292.00,VWS V14.01,2013-06-21 22:47:00,
2013-06-21 18:48:00,80.1,65.0,30.19,SE,125,1.0,9.0,60,0.00,,SKC,0.00,290.00,VWS V14.01,2013-06-21 22:48:00,
2013-06-21 18:51:00,80.0,64.4,30.19,SE,135,3.0,9.0,59,0.00,,SKC,0.00,279.00,VWS V14.01,2013-06-21 22:51:00,
2013-06-21 18:53:00,79.9,64.8,30.19,East,95,3.0,9.0,60,0.00,,SKC,0.00,271.00,VWS V14.01,2013-06-21 22:53:00,
2013-06-21 18:56:00,79.9,65.3,30.19,East,97,0.0,9.0,61,0.00,,SKC,0.00,262.00,VWS V14.01,2013-06-21 22:56:00,
2013-06-21 18:58:00,79.9,64.8,30.19,ESE,121,2.0,9.0,60,0.00,,SKC,0.00,257.00,VWS V14.01,2013-06-21 22:58:00,
2013-06-21 18:59:00,79.9,64.8,30.19,ESE,123,1.0,9.0,60,0.00,,SKC,0.00,251.00,VWS V14.01,2013-06-21 22:59:00,
2013-06-21 19:00:00,79.9,64.8,30.19,ESE,123,1.0,9.0,60,0.00,,SKC,0.00,250.00,VWS V14.01,2013-06-21 23:00:00,
2013-06-21 19:01:00,79.9,64.8,30.19,ESE,114,3.0,3.0,60,0.00,,SKC,0.00,244.00,VWS V14.01,2013-06-21 23:01:00,
2013-06-21 19:03:00,80.0,64.9,30.19,East,93,0.0,3.0,60,0.00,,SKC,0.00,239.00,VWS V14.01,2013-06-21 23:03:00,
2013-06-21 19:04:00,79.9,64.8,30.19,East,90,2.0,3.0,60,0.00,,SKC,0.00,236.00,VWS V14.01,2013-06-21 23:04:00,
2013-06-21 19:05:00,80.0,64.9,30.19,East,90,1.0,3.0,60,0.00,,SKC,0.00,232.00,VWS V14.01,2013-06-21 23:05:00,
2013-06-21 19:06:00,80.0,65.4,30.19,East,90,0.0,3.0,61,0.00,,SKC,0.00,229.00,VWS V14.01,2013-06-21 23:06:00,
2013-06-21 19:08:00,80.0,65.4,30.19,East,90,2.0,3.0,61,0.00,,SKC,0.00,223.00,VWS V14.01,2013-06-21 23:08:00,
2013-06-21 19:10:00,79.9,64.8,30.19,ESE,121,1.0,4.0,60,0.00,,SKC,0.00,220.00,VWS V14.01,2013-06-21 23:10:00,
2013-06-21 19:11:00,79.8,65.2,30.19,SE,137,3.0,4.0,61,0.00,,SKC,0.00,214.00,VWS V14.01,2013-06-21 23:11:00,
2013-06-21 19:14:00,79.6,65.0,30.19,SSE,148,2.0,4.0,61,0.00,,SKC,0.00,206.00,VWS V14.01,2013-06-21 23:14:00,
2013-06-21 19:15:00,79.6,65.0,30.19,ESE,103,0.0,4.0,61,0.00,,SKC,0.00,200.00,VWS V14.01,2013-06-21 23:15:00,
2013-06-21 19:17:00,79.5,64.9,30.19,SE,131,0.0,4.0,61,0.00,,SKC,0.00,197.00,VWS V14.01,2013-06-21 23:17:00,
2013-06-21 19:19:00,79.3,63.7,30.19,SE,136,3.0,9.0,59,0.00,,SKC,0.00,185.00,VWS V14.01,2013-06-21 23:19:00,
2013-06-21 19:20:00,79.3,64.2,30.19,ESE,123,5.0,9.0,60,0.00,,SKC,0.00,183.00,VWS V14.01,2013-06-21 23:20:00,
2013-06-21 19:21:00,79.3,64.2,30.19,SE,140,9.0,9.0,60,0.00,,SKC,0.00,183.00,VWS V14.01,2013-06-21 23:21:00,
2013-06-21 19:22:00,79.2,64.1,30.19,SE,135,5.0,9.0,60,0.00,,SKC,0.00,176.00,VWS V14.01,2013-06-21 23:22:00,
2013-06-21 19:25:00,78.9,64.3,30.19,SE,140,3.0,9.0,61,0.00,,SKC,0.00,163.00,VWS V14.01,2013-06-21 23:25:00,
2013-06-21 19:26:00,78.8,64.2,30.19,SE,140,0.0,9.0,61,0.00,,SKC,0.00,163.00,VWS V14.01,2013-06-21 23:26:00,
2013-06-21 19:27:00,78.7,64.1,30.19,SE,132,2.0,9.0,61,0.00,,SKC,0.00,156.00,VWS V14.01,2013-06-21 23:27:00,
2013-06-21 19:28:00,78.7,64.1,30.19,SE,142,6.0,9.0,61,0.00,,SKC,0.00,153.00,VWS V14.01,2013-06-21 23:28:00,
2013-06-21 19:31:00,78.5,64.0,30.19,ESE,110,3.0,9.0,61,0.00,,SKC,0.00,146.00,VWS V14.01,2013-06-21 23:31:00,
2013-06-21 19:32:00,78.5,64.4,30.19,SE,132,6.0,6.0,62,0.00,,SKC,0.00,139.00,VWS V14.01,2013-06-21 23:32:00,
2013-06-21 19:33:00,78.4,63.8,30.19,SE,140,3.0,6.0,61,0.00,,SKC,0.00,137.00,VWS V14.01,2013-06-21 23:33:00,
2013-06-21 19:36:00,78.3,64.2,30.19,ESE,111,0.0,6.0,62,0.00,,SKC,0.00,128.00,VWS V14.01,2013-06-21 23:36:00,
2013-06-21 19:37:00,78.3,64.2,30.19,ESE,114,0.0,6.0,62,0.00,,SKC,0.00,123.00,VWS V14.01,2013-06-21 23:37:00,
2013-06-21 19:38:00,78.2,64.1,30.19,ESE,113,0.0,6.0,62,0.00,,SKC,0.00,120.00,VWS V14.01,2013-06-21 23:38:00,
2013-06-21 19:41:00,78.0,63.9,30.20,ESE,113,1.0,6.0,62,0.00,,SKC,0.00,113.00,VWS V14.01,2013-06-21 23:41:00,
2013-06-21 19:42:00,78.0,63.9,30.20,ESE,113,0.0,6.0,62,0.00,,SKC,0.00,111.00,VWS V14.01,2013-06-21 23:42:00,
2013-06-21 19:43:00,78.0,63.9,30.20,ESE,113,0.0,6.0,62,0.00,,SKC,0.00,105.00,VWS V14.01,2013-06-21 23:43:00,
2013-06-21 19:47:00,77.8,64.2,30.20,ESE,108,2.0,6.0,63,0.00,,SKC,0.00,93.00,VWS V14.01,2013-06-21 23:47:00,
2013-06-21 19:48:00,77.8,63.8,30.20,ESE,108,1.0,6.0,62,0.00,,SKC,0.00,90.00,VWS V14.01,2013-06-21 23:48:00,
2013-06-21 19:49:00,77.8,64.2,30.20,ESE,108,0.0,6.0,63,0.00,,SKC,0.00,84.00,VWS V14.01,2013-06-21 23:49:00,
2013-06-21 19:52:00,77.6,64.0,30.20,SE,146,1.0,6.0,63,0.00,,SKC,0.00,77.00,VWS V14.01,2013-06-21 23:52:00,
2013-06-21 19:53:00,77.6,64.0,30.20,SE,141,4.0,6.0,63,0.00,,SKC,0.00,74.00,VWS V14.01,2013-06-21 23:53:00,
2013-06-21 19:54:00,77.5,63.9,30.20,SE,141,1.0,6.0,63,0.00,,SKC,0.00,70.00,VWS V14.01,2013-06-21 23:54:00,
2013-06-21 19:57:00,77.3,64.2,30.20,SE,134,0.0,6.0,64,0.00,,SKC,0.00,62.00,VWS V14.01,2013-06-21 23:57:00,
2013-06-21 19:58:00,77.3,64.2,30.20,SE,134,0.0,6.0,64,0.00,,SKC,0.00,62.00,VWS V14.01,2013-06-21 23:58:00,
2013-06-21 19:59:00,77.2,64.1,30.20,ESE,123,0.0,6.0,64,0.00,,SKC,0.00,56.00,VWS V14.01,2013-06-21 23:59:00,
2013-06-21 20:02:00,77.0,63.9,30.20,ESE,123,2.0,2.0,64,0.00,,SKC,0.00,49.00,VWS V14.01,2013-06-22 00:02:00,
2013-06-21 20:03:00,76.9,64.2,30.20,SSE,147,3.0,3.0,65,0.00,,SKC,0.00,49.00,VWS V14.01,2013-06-22 00:03:00,
2013-06-21 20:04:00,76.9,63.8,30.20,SE,128,1.0,3.0,64,0.00,,SKC,0.00,44.00,VWS V14.01,2013-06-22 00:04:00,
2013-06-21 20:07:00,76.7,64.1,30.20,ESE,115,2.0,4.0,65,0.00,,SKC,0.00,42.00,VWS V14.01,2013-06-22 00:07:00,
2013-06-21 20:08:00,76.6,64.0,30.20,ESE,115,0.0,4.0,65,0.00,,SKC,0.00,39.00,VWS V14.01,2013-06-22 00:08:00,
2013-06-21 20:09:00,76.6,64.0,30.20,ESE,104,4.0,4.0,65,0.00,,SKC,0.00,39.00,VWS V14.01,2013-06-22 00:09:00,
2013-06-21 20:10:00,76.6,64.0,30.20,ESE,121,2.0,4.0,65,0.00,,SKC,0.00,35.00,VWS V14.01,2013-06-22 00:10:00,
2013-06-21 20:12:00,76.4,63.8,30.20,SE,133,0.0,5.0,65,0.00,,SKC,0.00,32.00,VWS V14.01,2013-06-22 00:12:00,
2013-06-21 20:14:00,76.3,63.7,30.21,ESE,112,1.0,5.0,65,0.00,,SKC,0.00,30.00,VWS V14.01,2013-06-22 00:14:00,
2013-06-21 20:15:00,76.2,63.6,30.21,ESE,113,0.0,5.0,65,0.00,,SKC,0.00,26.00,VWS V14.01,2013-06-22 00:15:00,
2013-06-21 20:17:00,76.0,63.4,30.21,SE,130,1.0,5.0,65,0.00,,SKC,0.00,21.00,VWS V14.01,2013-06-22 00:17:00,
2013-06-21 20:19:00,75.8,62.8,30.21,SE,130,1.0,5.0,64,0.00,,SKC,0.00,18.00,VWS V14.01,2013-06-22 00:19:00,
2013-06-21 20:20:00,75.8,63.2,30.21,SE,128,0.0,5.0,65,0.00,,SKC,0.00,18.00,VWS V14.01,2013-06-22 00:20:00,
2013-06-21 20:22:00,75.6,62.6,30.21,SE,144,1.0,5.0,64,0.00,,SKC,0.00,16.00,VWS V14.01,2013-06-22 00:22:00,
2013-06-21 20:24:00,75.4,62.4,30.21,ESE,119,1.0,8.0,64,0.00,,SKC,0.00,14.00,VWS V14.01,2013-06-22 00:24:00,
2013-06-21 20:25:00,75.3,62.3,30.21,SSE,157,3.0,8.0,64,0.00,,SKC,0.00,14.00,VWS V14.01,2013-06-22 00:25:00,
2013-06-21 20:26:00,75.3,62.3,30.21,SE,141,0.0,8.0,64,0.00,,SKC,0.00,14.00,VWS V14.01,2013-06-22 00:26:00,
2013-06-21 20:27:00,75.1,62.1,30.20,SSE,147,3.0,8.0,64,0.00,,SKC,0.00,12.00,VWS V14.01,2013-06-22 00:27:00,
2013-06-21 20:29:00,75.0,62.0,30.20,SE,141,3.0,8.0,64,0.00,,SKC,0.00,11.00,VWS V14.01,2013-06-22 00:29:00,
2013-06-21 20:30:00,75.0,62.0,30.20,SE,137,1.0,8.0,64,0.00,,SKC,0.00,11.00,VWS V14.01,2013-06-22 00:30:00,
2013-06-21 20:31:00,74.9,61.9,30.20,SE,138,3.0,8.0,64,0.00,,SKC,0.00,11.00,VWS V14.01,2013-06-22 00:31:00,
2013-06-21 20:32:00,74.8,61.8,30.21,SE,142,0.0,4.0,64,0.00,,SKC,0.00,9.00,VWS V14.01,2013-06-22 00:32:00,
2013-06-21 20:34:00,74.7,62.2,30.21,SE,142,1.0,4.0,65,0.00,,SKC,0.00,9.00,VWS V14.01,2013-06-22 00:34:00,
2013-06-21 20:35:00,74.7,62.2,30.21,SE,142,0.0,4.0,65,0.00,,SKC,0.00,9.00,VWS V14.01,2013-06-22 00:35:00,
2013-06-21 20:36:00,74.6,61.6,30.21,SE,142,0.0,4.0,64,0.00,,SKC,0.00,7.00,VWS V14.01,2013-06-22 00:36:00,
2013-06-21 20:37:00,74.6,61.6,30.21,SE,142,0.0,4.0,64,0.00,,SKC,0.00,7.00,VWS V14.01,2013-06-22 00:37:00,
2013-06-21 20:40:00,74.4,61.9,30.21,SE,142,1.0,4.0,65,0.00,,SKC,0.00,5.00,VWS V14.01,2013-06-22 00:40:00,
2013-06-21 20:41:00,74.4,61.9,30.21,SE,142,0.0,4.0,65,0.00,,SKC,0.00,5.00,VWS V14.01,2013-06-22 00:41:00,
2013-06-21 20:42:00,74.3,61.8,30.21,SE,142,0.0,4.0,65,0.00,,SKC,0.00,0.00,VWS V14.01,2013-06-22 00:42:00,
2013-06-21 20:45:00,74.2,62.1,30.21,SE,142,0.0,4.0,66,0.00,,SKC,0.00,0.00,VWS V14.01,2013-06-22 00:45:00,
2013-06-21 20:46:00,74.2,62.1,30.21,ESE,123,0.0,4.0,66,0.00,,SKC,0.00,0.00,VWS V14.01,2013-06-22 00:46:00,
2013-06-21 20:47:00,74.1,61.6,30.21,ESE,123,0.0,4.0,65,0.00,,SKC,0.00,0.00,VWS V14.01,2013-06-22 00:47:00,
2013-06-21 20:49:00,74.1,62.0,30.21,ESE,123,0.0,4.0,66,0.00,,SKC,0.00,0.00,VWS V14.01,2013-06-22 00:49:00,
2013-06-21 20:50:00,74.0,61.9,30.21,ESE,123,0.0,4.0,66,0.00,,SKC,0.00,0.00,VWS V14.01,2013-06-22 00:50:00,
2013-06-21 20:51:00,74.0,61.9,30.21,ESE,123,0.0,4.0,66,0.00,,SKC,0.00,0.00,VWS V14.01,2013-06-22 00:51:00,
2013-06-21 20:52:00,73.9,61.8,30.21,ESE,123,0.0,4.0,66,0.00,,SKC,0.00,0.00,VWS V14.01,2013-06-22 00:52:00,
2013-06-21 20:54:00,73.8,61.7,30.21,ESE,122,0.0,4.0,66,0.00,,SKC,0.00,0.00,VWS V14.01,2013-06-22 00:54:00,
2013-06-21 20:55:00,73.7,61.7,30.21,ESE,123,0.0,4.0,66,0.00,,SKC,0.00,0.00,VWS V14.01,2013-06-22 00:55:00,
2013-06-21 20:56:00,73.7,61.7,30.21,ESE,122,0.0,4.0,66,0.00,,SKC,0.00,0.00,VWS V14.01,2013-06-22 00:56:00,
2013-06-21 20:57:00,73.6,61.5,30.21,ESE,123,0.0,4.0,66,0.00,,SKC,0.00,0.00,VWS V14.01,2013-06-22 00:57:00,
2013-06-21 20:58:00,73.6,61.5,30.21,ESE,122,0.0,4.0,66,0.00,,SKC,0.00,0.00,VWS V14.01,2013-06-22 00:58:00,
2013-06-21 21:00:00,73.5,61.5,30.22,ESE,123,0.0,4.0,66,0.00,,SKC,0.00,0.00,VWS V14.01,2013-06-22 01:00:00,
2013-06-21 21:01:00,73.5,61.5,30.22,ESE,122,0.0,4.0,66,0.00,,SKC,0.00,0.00,VWS V14.01,2013-06-22 01:01:00,
2013-06-21 21:02:00,73.4,61.8,30.22,ESE,123,0.0,0.0,67,0.00,,SKC,0.00,0.00,VWS V14.01,2013-06-22 01:02:00,
2013-06-21 21:03:00,73.4,61.8,30.22,ESE,122,0.0,2.0,67,0.00,,SKC,0.00,0.00,VWS V14.01,2013-06-22 01:03:00,
2013-06-21 21:06:00,73.3,63.3,30.22,ESE,122,0.0,2.0,71,0.00,,SKC,0.00,0.00,VWS V14.01,2013-06-22 01:06:00,
2013-06-21 21:07:00,73.1,62.7,30.22,ESE,123,1.0,2.0,70,0.00,,SKC,0.00,0.00,VWS V14.01,2013-06-22 01:07:00,
2013-06-21 21:08:00,73.0,62.7,30.22,ESE,123,1.0,2.0,70,0.00,,SKC,0.00,0.00,VWS V14.01,2013-06-22 01:08:00,
2013-06-21 21:11:00,72.7,62.8,30.22,ESE,123,0.0,2.0,71,0.00,,SKC,0.00,0.00,VWS V14.01,2013-06-22 01:11:00,
2013-06-21 21:12:00,72.6,63.1,30.22,ESE,123,2.0,2.0,72,0.00,,SKC,0.00,0.00,VWS V14.01,2013-06-22 01:12:00,
2013-06-21 21:13:00,72.5,63.0,30.22,ESE,123,2.0,2.0,72,0.00,,SKC,0.00,0.00,VWS V14.01,2013-06-22 01:13:00,
2013-06-21 21:16:00,72.1,63.4,30.21,ESE,122,1.0,2.0,74,0.00,,SKC,0.00,0.00,VWS V14.01,2013-06-22 01:16:00,
2013-06-21 21:17:00,72.0,63.3,30.21,ESE,122,2.0,2.0,74,0.00,,SKC,0.00,0.00,VWS V14.01,2013-06-22 01:17:00,
2013-06-21 21:18:00,71.9,63.5,30.21,ESE,122,2.0,2.0,75,0.00,,SKC,0.00,0.00,VWS V14.01,2013-06-22 01:18:00,
2013-06-21 21:21:00,71.5,63.5,30.22,ESE,122,2.0,2.0,76,0.00,,SKC,0.00,0.00,VWS V14.01,2013-06-22 01:21:00,
2013-06-21 21:22:00,71.5,63.5,30.22,ESE,122,1.0,2.0,76,0.00,,SKC,0.00,0.00,VWS V14.01,2013-06-22 01:22:00,
2013-06-21 21:23:00,71.3,63.7,30.22,ESE,122,2.0,2.0,77,0.00,,SKC,0.00,0.00,VWS V14.01,2013-06-22 01:23:00,
2013-06-21 21:27:00,70.8,63.6,30.22,ESE,123,2.0,3.0,78,0.00,,SKC,0.00,0.00,VWS V14.01,2013-06-22 01:27:00,
2013-06-21 21:28:00,70.6,63.4,30.22,ESE,123,2.0,3.0,78,0.00,,SKC,0.00,0.00,VWS V14.01,2013-06-22 01:28:00,
2013-06-21 21:32:00,70.2,63.0,30.22,ESE,123,0.0,1.0,78,0.00,,SKC,0.00,0.00,VWS V14.01,2013-06-22 01:32:00,
2013-06-21 21:33:00,70.1,63.3,30.22,ESE,123,1.0,2.0,79,0.00,,SKC,0.00,0.00,VWS V14.01,2013-06-22 01:33:00,
2013-06-21 21:37:00,69.7,62.5,30.22,ESE,123,1.0,2.0,78,0.00,,SKC,0.00,0.00,VWS V14.01,2013-06-22 01:37:00,
2013-06-21 21:38:00,69.7,62.5,30.22,ESE,123,0.0,2.0,78,0.00,,SKC,0.00,0.00,VWS V14.01,2013-06-22 01:38:00,
2013-06-21 21:39:00,69.6,62.4,30.22,ESE,123,1.0,2.0,78,0.00,,SKC,0.00,0.00,VWS V14.01,2013-06-22 01:39:00,
2013-06-21 21:40:00,69.5,62.7,30.22,ESE,123,0.0,2.0,79,0.00,,SKC,0.00,0.00,VWS V14.01,2013-06-22 01:40:00,
2013-06-21 21:42:00,69.4,62.6,30.22,ESE,123,0.0,2.0,79,0.00,,SKC,0.00,0.00,VWS V14.01,2013-06-22 01:42:00,
2013-06-21 21:43:00,69.3,62.5,30.22,ESE,123,0.0,2.0,79,0.00,,SKC,0.00,0.00,VWS V14.01,2013-06-22 01:43:00,
2013-06-21 21:44:00,69.3,62.5,30.22,ESE,123,1.0,2.0,79,0.00,,SKC,0.00,0.00,VWS V14.01,2013-06-22 01:44:00,
2013-06-21 21:45:00,69.2,62.8,30.22,ESE,123,1.0,2.0,80,0.00,,SKC,0.00,0.00,VWS V14.01,2013-06-22 01:45:00,
2013-06-21 21:47:00,69.0,62.6,30.22,ESE,123,1.0,2.0,80,0.00,,SKC,0.00,0.00,VWS V14.01,2013-06-22 01:47:00,
2013-06-21 21:48:00,69.0,62.6,30.22,ESE,123,1.0,2.0,80,0.00,,SKC,0.00,0.00,VWS V14.01,2013-06-22 01:48:00,
2013-06-21 21:49:00,68.9,62.8,30.22,ESE,123,1.0,2.0,81,0.00,,SKC,0.00,0.00,VWS V14.01,2013-06-22 01:49:00,
2013-06-21 21:50:00,68.9,62.8,30.22,ESE,123,1.0,2.0,81,0.00,,SKC,0.00,0.00,VWS V14.01,2013-06-22 01:50:00,
2013-06-21 21:52:00,68.7,62.6,30.22,ESE,123,1.0,3.0,81,0.00,,SKC,0.00,0.00,VWS V14.01,2013-06-22 01:52:00,
2013-06-21 21:53:00,68.7,62.6,30.22,ESE,123,2.0,3.0,81,0.00,,SKC,0.00,0.00,VWS V14.01,2013-06-22 01:53:00,
2013-06-21 21:54:00,68.6,62.5,30.22,ESE,123,1.0,3.0,81,0.00,,SKC,0.00,0.00,VWS V14.01,2013-06-22 01:54:00,
2013-06-21 21:55:00,68.6,62.5,30.22,ESE,123,1.0,3.0,81,0.00,,SKC,0.00,0.00,VWS V14.01,2013-06-22 01:55:00,
2013-06-21 21:57:00,68.2,62.2,30.23,ESE,123,2.0,3.0,81,0.00,,SKC,0.00,0.00,VWS V14.01,2013-06-22 01:57:00,
2013-06-21 21:58:00,68.2,62.2,30.23,ESE,123,1.0,3.0,81,0.00,,SKC,0.00,0.00,VWS V14.01,2013-06-22 01:58:00,
2013-06-21 21:59:00,68.1,62.1,30.23,ESE,123,2.0,3.0,81,0.00,,SKC,0.00,0.00,VWS V14.01,2013-06-22 01:59:00,
2013-06-21 22:00:00,68.1,62.1,30.23,ESE,123,2.0,3.0,81,0.00,,SKC,0.00,0.00,VWS V14.01,2013-06-22 02:00:00,
2013-06-21 22:03:00,67.7,61.7,30.23,ESE,123,1.0,3.0,81,0.00,,SKC,0.00,0.00,VWS V14.01,2013-06-22 02:03:00,
2013-06-21 22:04:00,67.6,61.6,30.23,ESE,123,2.0,3.0,81,0.00,,SKC,0.00,0.00,VWS V14.01,2013-06-22 02:04:00,
2013-06-21 22:05:00,67.5,61.5,30.23,ESE,123,2.0,3.0,81,0.00,,SKC,0.00,0.00,VWS V14.01,2013-06-22 02:05:00,
2013-06-21 22:07:00,67.3,61.6,30.23,ESE,123,1.0,3.0,82,0.00,,SKC,0.00,0.00,VWS V14.01,2013-06-22 02:07:00,
2013-06-21 22:08:00,67.3,61.6,30.23,ESE,123,2.0,3.0,82,0.00,,SKC,0.00,0.00,VWS V14.01,2013-06-22 02:08:00,
2013-06-21 22:09:00,67.2,61.5,30.23,ESE,123,1.0,3.0,82,0.00,,SKC,0.00,0.00,VWS V14.01,2013-06-22 02:09:00,
2013-06-21 22:11:00,67.1,61.4,30.23,ESE,123,2.0,3.0,82,0.00,,SKC,0.00,0.00,VWS V14.01,2013-06-22 02:11:00,
2013-06-21 22:13:00,67.0,61.3,30.23,ESE,123,2.0,3.0,82,0.00,,SKC,0.00,0.00,VWS V14.01,2013-06-22 02:13:00,
2013-06-21 22:14:00,66.9,61.2,30.23,ESE,123,1.0,3.0,82,0.00,,SKC,0.00,0.00,VWS V14.01,2013-06-22 02:14:00,
2013-06-21 22:16:00,66.8,61.1,30.23,ESE,123,2.0,3.0,82,0.00,,SKC,0.00,0.00,VWS V14.01,2013-06-22 02:16:00,
2013-06-21 22:18:00,66.7,61.0,30.23,ESE,123,2.0,3.0,82,0.00,,SKC,0.00,0.00,VWS V14.01,2013-06-22 02:18:00,
2013-06-21 22:19:00,66.7,60.7,30.23,ESE,123,1.0,3.0,81,0.00,,SKC,0.00,0.00,VWS V14.01,2013-06-22 02:19:00,
2013-06-21 22:20:00,66.6,60.9,30.23,ESE,123,0.0,3.0,82,0.00,,SKC,0.00,0.00,VWS V14.01,2013-06-22 02:20:00,
2013-06-21 22:21:00,66.6,60.9,30.23,ESE,123,1.0,3.0,82,0.00,,SKC,0.00,0.00,VWS V14.01,2013-06-22 02:21:00,
2013-06-21 22:23:00,66.5,60.5,30.23,ESE,123,0.0,3.0,81,0.00,,SKC,0.00,0.00,VWS V14.01,2013-06-22 02:23:00,
2013-06-21 22:24:00,66.5,60.5,30.23,ESE,123,1.0,3.0,81,0.00,,SKC,0.00,0.00,VWS V14.01,2013-06-22 02:24:00,
2013-06-21 22:25:00,66.4,60.4,30.23,ESE,123,0.0,3.0,81,0.00,,SKC,0.00,0.00,VWS V14.01,2013-06-22 02:25:00,
2013-06-21 22:26:00,66.4,60.4,30.23,ESE,123,1.0,3.0,81,0.00,,SKC,0.00,0.00,VWS V14.01,2013-06-22 02:26:00,
2013-06-21 22:28:00,66.4,60.4,30.23,ESE,123,0.0,3.0,81,0.00,,SKC,0.00,0.00,VWS V14.01,2013-06-22 02:28:00,
2013-06-21 22:29:00,66.4,60.7,30.23,ESE,123,0.0,3.0,82,0.00,,SKC,0.00,0.00,VWS V14.01,2013-06-22 02:29:00,
2013-06-21 22:30:00,66.4,60.7,30.23,ESE,123,1.0,3.0,82,0.00,,SKC,0.00,0.00,VWS V14.01,2013-06-22 02:30:00,
2013-06-21 22:32:00,66.4,61.1,30.23,ESE,123,0.0,2.0,83,0.00,,SKC,0.00,0.00,VWS V14.01,2013-06-22 02:32:00,
2013-06-21 22:33:00,66.3,61.0,30.23,ESE,123,2.0,2.0,83,0.00,,SKC,0.00,0.00,VWS V14.01,2013-06-22 02:33:00,
2013-06-21 22:34:00,66.3,60.7,30.24,ESE,123,2.0,2.0,82,0.00,,SKC,0.00,0.00,VWS V14.01,2013-06-22 02:34:00,
2013-06-21 22:35:00,66.3,60.7,30.24,ESE,123,2.0,2.0,82,0.00,,SKC,0.00,0.00,VWS V14.01,2013-06-22 02:35:00,
2013-06-21 22:37:00,66.1,60.5,30.24,ESE,123,3.0,3.0,82,0.00,,SKC,0.00,0.00,VWS V14.01,2013-06-22 02:37:00,
2013-06-21 22:39:00,66.0,60.0,30.24,ESE,123,2.0,4.0,81,0.00,,SKC,0.00,0.00,VWS V14.01,2013-06-22 02:39:00,
2013-06-21 22:40:00,65.9,59.9,30.23,ESE,123,2.0,4.0,81,0.00,,SKC,0.00,0.00,VWS V14.01,2013-06-22 02:40:00,
2013-06-21 22:42:00,65.8,59.8,30.24,ESE,122,1.0,4.0,81,0.00,,SKC,0.00,0.00,VWS V14.01,2013-06-22 02:42:00,
2013-06-21 22:44:00,65.8,59.8,30.24,ESE,122,1.0,4.0,81,0.00,,SKC,0.00,0.00,VWS V14.01,2013-06-22 02:44:00,
2013-06-21 22:45:00,65.8,59.8,30.24,ESE,122,2.0,4.0,81,0.00,,SKC,0.00,0.00,VWS V14.01,2013-06-22 02:45:00,
2013-06-21 22:46:00,65.7,59.7,30.23,ESE,122,1.0,4.0,81,0.00,,SKC,0.00,0.00,VWS V14.01,2013-06-22 02:46:00,
2013-06-21 22:47:00,65.7,59.7,30.23,ESE,122,2.0,4.0,81,0.00,,SKC,0.00,0.00,VWS V14.01,2013-06-22 02:47:00,
2013-06-21 22:49:00,65.7,59.7,30.23,ESE,122,2.0,4.0,81,0.00,,SKC,0.00,0.00,VWS V14.01,2013-06-22 02:49:00,
2013-06-21 22:50:00,65.6,59.6,30.23,ESE,122,2.0,4.0,81,0.00,,SKC,0.00,0.00,VWS V14.01,2013-06-22 02:50:00,
2013-06-21 22:51:00,65.6,59.6,30.23,ESE,122,2.0,4.0,81,0.00,,SKC,0.00,0.00,VWS V14.01,2013-06-22 02:51:00,
2013-06-21 22:52:00,65.6,59.6,30.23,ESE,122,2.0,4.0,81,0.00,,SKC,0.00,0.00,VWS V14.01,2013-06-22 02:52:00,
2013-06-21 22:54:00,65.5,59.5,30.23,ESE,122,2.0,4.0,81,0.00,,SKC,0.00,0.00,VWS V14.01,2013-06-22 02:54:00,
2013-06-21 22:55:00,65.5,59.5,30.23,ESE,122,3.0,4.0,81,0.00,,SKC,0.00,0.00,VWS V14.01,2013-06-22 02:55:00,
2013-06-21 22:56:00,65.5,59.2,30.23,ESE,122,2.0,4.0,80,0.00,,SKC,0.00,0.00,VWS V14.01,2013-06-22 02:56:00,
2013-06-21 22:58:00,65.4,59.1,30.23,ESE,122,3.0,4.0,80,0.00,,SKC,0.00,0.00,VWS V14.01,2013-06-22 02:58:00,
2013-06-21 22:59:00,65.4,59.1,30.23,ESE,122,1.0,4.0,80,0.00,,SKC,0.00,0.00,VWS V14.01,2013-06-22 02:59:00,
2013-06-21 23:00:00,65.4,59.1,30.23,ESE,122,1.0,4.0,80,0.00,,SKC,0.00,0.00,VWS V14.01,2013-06-22 03:00:00,
2013-06-21 23:01:00,65.3,59.0,30.23,ESE,122,2.0,4.0,80,0.00,,SKC,0.00,0.00,VWS V14.01,2013-06-22 03:01:00,
2013-06-21 23:03:00,65.3,59.0,30.23,ESE,122,1.0,3.0,80,0.00,,SKC,0.00,0.00,VWS V14.01,2013-06-22 03:03:00,
2013-06-21 23:04:00,65.2,58.9,30.24,ESE,122,3.0,3.0,80,0.00,,SKC,0.00,0.00,VWS V14.01,2013-06-22 03:04:00,
2013-06-21 23:05:00,65.3,59.0,30.24,ESE,122,2.0,3.0,80,0.00,,SKC,0.00,0.00,VWS V14.01,2013-06-22 03:05:00,
2013-06-21 23:06:00,65.2,58.9,30.23,ESE,122,2.0,3.0,80,0.00,,SKC,0.00,0.00,VWS V14.01,2013-06-22 03:06:00,
2013-06-21 23:08:00,65.2,58.9,30.24,ESE,122,3.0,3.0,80,0.00,,SKC,0.00,0.00,VWS V14.01,2013-06-22 03:08:00,
2013-06-21 23:10:00,65.1,58.8,30.24,ESE,122,2.0,3.0,80,0.00,,SKC,0.00,0.00,VWS V14.01,2013-06-22 03:10:00,
2013-06-21 23:11:00,65.1,58.8,30.24,ESE,122,3.0,3.0,80,0.00,,SKC,0.00,0.00,VWS V14.01,2013-06-22 03:11:00,
2013-06-21 23:13:00,65.1,58.8,30.24,ESE,122,2.0,3.0,80,0.00,,SKC,0.00,0.00,VWS V14.01,2013-06-22 03:13:00,
2013-06-21 23:15:00,65.0,58.7,30.24,ESE,122,2.0,3.0,80,0.00,,SKC,0.00,0.00,VWS V14.01,2013-06-22 03:15:00,
2013-06-21 23:16:00,65.0,58.7,30.24,ESE,122,2.0,3.0,80,0.00,,SKC,0.00,0.00,VWS V14.01,2013-06-22 03:16:00,
2013-06-21 23:18:00,65.0,58.7,30.24,ESE,122,2.0,3.0,80,0.00,,SKC,0.00,0.00,VWS V14.01,2013-06-22 03:18:00,
2013-06-21 23:20:00,64.9,58.9,30.24,ESE,122,3.0,3.0,81,0.00,,SKC,0.00,0.00,VWS V14.01,2013-06-22 03:20:00,
2013-06-21 23:21:00,64.9,58.9,30.24,ESE,122,2.0,3.0,81,0.00,,SKC,0.00,0.00,VWS V14.01,2013-06-22 03:21:00,
2013-06-21 23:23:00,64.8,58.8,30.24,WNW,303,3.0,4.0,81,0.00,,SKC,0.00,0.00,VWS V14.01,2013-06-22 03:23:00,
2013-06-21 23:25:00,64.8,58.8,30.24,WNW,296,2.0,4.0,81,0.00,,SKC,0.00,0.00,VWS V14.01,2013-06-22 03:25:00,
2013-06-21 23:26:00,64.7,58.7,30.24,WNW,296,4.0,4.0,81,0.00,,SKC,0.00,0.00,VWS V14.01,2013-06-22 03:26:00,
2013-06-21 23:27:00,64.7,58.7,30.24,WNW,290,2.0,4.0,81,0.00,,SKC,0.00,0.00,VWS V14.01,2013-06-22 03:27:00,
2013-06-21 23:28:00,64.7,58.7,30.24,WNW,290,3.0,4.0,81,0.00,,SKC,0.00,0.00,VWS V14.01,2013-06-22 03:28:00,
2013-06-21 23:30:00,64.6,58.7,30.24,WNW,292,2.0,4.0,81,0.00,,SKC,0.00,0.00,VWS V14.01,2013-06-22 03:30:00,
2013-06-21 23:31:00,64.6,58.7,30.24,WNW,292,2.0,3.0,81,0.00,,SKC,0.00,0.00,VWS V14.01,2013-06-22 03:31:00,
2013-06-21 23:32:00,64.6,58.7,30.24,WNW,292,2.0,3.0,81,0.00,,SKC,0.00,0.00,VWS V14.01,2013-06-22 03:32:00,
2013-06-21 23:33:00,64.6,58.7,30.24,WNW,292,2.0,3.0,81,0.00,,SKC,0.00,0.00,VWS V14.01,2013-06-22 03:33:00,
2013-06-21 23:36:00,64.7,58.7,30.24,WNW,294,3.0,4.0,81,0.00,,SKC,0.00,0.00,VWS V14.01,2013-06-22 03:36:00,
2013-06-21 23:37:00,64.7,58.7,30.24,WNW,294,2.0,4.0,81,0.00,,SKC,0.00,0.00,VWS V14.01,2013-06-22 03:37:00,
2013-06-21 23:38:00,64.7,58.4,30.24,WNW,296,2.0,4.0,80,0.00,,SKC,0.00,0.00,VWS V14.01,2013-06-22 03:38:00,
2013-06-21 23:39:00,64.7,58.4,30.24,WNW,297,2.0,4.0,80,0.00,,SKC,0.00,0.00,VWS V14.01,2013-06-22 03:39:00,
2013-06-21 23:42:00,64.8,58.5,30.24,WNW,298,3.0,4.0,80,0.00,,SKC,0.00,0.00,VWS V14.01,2013-06-22 03:42:00,
2013-06-21 23:43:00,64.8,58.5,30.24,WNW,298,2.0,4.0,80,0.00,,SKC,0.00,0.00,VWS V14.01,2013-06-22 03:43:00,
2013-06-21 23:44:00,64.7,58.4,30.24,WNW,298,2.0,4.0,80,0.00,,SKC,0.00,0.00,VWS V14.01,2013-06-22 03:44:00,
2013-06-21 23:47:00,64.7,58.7,30.24,WNW,298,2.0,4.0,81,0.00,,SKC,0.00,0.00,VWS V14.01,2013-06-22 03:47:00,
2013-06-21 23:48:00,64.6,58.7,30.24,WNW,298,2.0,4.0,81,0.00,,SKC,0.00,0.00,VWS V14.01,2013-06-22 03:48:00,
2013-06-21 23:49:00,64.6,58.7,30.24,WNW,298,1.0,4.0,81,0.00,,SKC,0.00,0.00,VWS V14.01,2013-06-22 03:49:00,
2013-06-21 23:52:00,64.5,58.5,30.24,WNW,300,3.0,4.0,81,0.00,,SKC,0.00,0.00,VWS V14.01,2013-06-22 03:52:00,
2013-06-21 23:53:00,64.4,58.5,30.24,WNW,300,3.0,4.0,81,0.00,,SKC,0.00,0.00,VWS V14.01,2013-06-22 03:53:00,
2013-06-21 23:54:00,64.4,58.5,30.24,WNW,300,3.0,4.0,81,0.00,,SKC,0.00,0.00,VWS V14.01,2013-06-22 03:54:00,
2013-06-21 23:57:00,64.2,58.3,30.24,WNW,300,1.0,4.0,81,0.00,,SKC,0.00,0.00,VWS V14.01,2013-06-22 03:57:00,
2013-06-21 23:58:00,64.2,58.3,30.24,WNW,300,1.0,4.0,81,0.00,,SKC,0.00,0.00,VWS V14.01,2013-06-22 03:58:00,
2013-06-21 23:59:00,64.1,58.5,30.24,WNW,300,1.0,4.0,82,0.00,,SKC,0.00,0.00,VWS V14.01,2013-06-22 03:59:00,